<?xml version="1.0" encoding="UTF-8" standalone="no" ?>
<gpx xmlns="http://www.topografix.com/GPX/1/1" creator="www.plotaroute.com" version="1.1"  xmlns:xsi="http://www.w3.org/2001/XMLSchema-instance" xsi:schemaLocation="http://www.topografix.com/GPX/1/1 http://www.topografix.com/GPX/1/1/gpx.xsd">
<metadata>
<desc>Route created on plotaroute.com</desc>
</metadata>
<trk>
<name>191030-RLE-Lighthorne-52m</name>
<trkseg>
<trkpt lat="52.37062" lon="-1.83467">
<ele>147</ele>
<time>2019-10-11T00:00:00Z</time></trkpt>
<trkpt lat="52.36908" lon="-1.83539">
<ele>147</ele>
<time>2019-10-11T00:00:32Z</time></trkpt>
<trkpt lat="52.36801" lon="-1.83614">
<ele>145</ele>
<time>2019-10-11T00:00:55Z</time></trkpt>
<trkpt lat="52.36734" lon="-1.8352">
<ele>140</ele>
<time>2019-10-11T00:01:13Z</time></trkpt>
<trkpt lat="52.36486" lon="-1.83131">
<ele>141</ele>
<time>2019-10-11T00:02:22Z</time></trkpt>
<trkpt lat="52.36319" lon="-1.82937">
<ele>150</ele>
<time>2019-10-11T00:03:03Z</time></trkpt>
<trkpt lat="52.36164" lon="-1.82719">
<ele>151</ele>
<time>2019-10-11T00:03:44Z</time></trkpt>
<trkpt lat="52.36165" lon="-1.82702">
<ele>151</ele>
<time>2019-10-11T00:03:46Z</time></trkpt>
<trkpt lat="52.36092" lon="-1.82493">
<ele>150</ele>
<time>2019-10-11T00:04:15Z</time></trkpt>
<trkpt lat="52.36041" lon="-1.82236">
<ele>150</ele>
<time>2019-10-11T00:04:48Z</time></trkpt>
<trkpt lat="52.3603" lon="-1.82138">
<ele>151</ele>
<time>2019-10-11T00:05:01Z</time></trkpt>
<trkpt lat="52.35961" lon="-1.81931">
<ele>142</ele>
<time>2019-10-11T00:05:30Z</time></trkpt>
<trkpt lat="52.3594" lon="-1.81692">
<ele>146</ele>
<time>2019-10-11T00:05:59Z</time></trkpt>
<trkpt lat="52.35924" lon="-1.81589">
<ele>149</ele>
<time>2019-10-11T00:06:12Z</time></trkpt>
<trkpt lat="52.35903" lon="-1.8151">
<ele>150</ele>
<time>2019-10-11T00:06:23Z</time></trkpt>
<trkpt lat="52.35864" lon="-1.81386">
<ele>150</ele>
<time>2019-10-11T00:06:40Z</time></trkpt>
<trkpt lat="52.35829" lon="-1.81301">
<ele>149</ele>
<time>2019-10-11T00:06:52Z</time></trkpt>
<trkpt lat="52.35761" lon="-1.81166">
<ele>147</ele>
<time>2019-10-11T00:07:14Z</time></trkpt>
<trkpt lat="52.35693" lon="-1.81071">
<ele>146</ele>
<time>2019-10-11T00:07:32Z</time></trkpt>
<trkpt lat="52.35653" lon="-1.80981">
<ele>143</ele>
<time>2019-10-11T00:07:45Z</time></trkpt>
<trkpt lat="52.35533" lon="-1.80508">
<ele>149</ele>
<time>2019-10-11T00:08:48Z</time></trkpt>
<trkpt lat="52.35471" lon="-1.80221">
<ele>147</ele>
<time>2019-10-11T00:09:25Z</time></trkpt>
<trkpt lat="52.35356" lon="-1.79622">
<ele>140</ele>
<time>2019-10-11T00:10:42Z</time></trkpt>
<trkpt lat="52.35329" lon="-1.7945">
<ele>141</ele>
<time>2019-10-11T00:11:04Z</time></trkpt>
<trkpt lat="52.35246" lon="-1.79125">
<ele>145</ele>
<time>2019-10-11T00:11:47Z</time></trkpt>
<trkpt lat="52.35196" lon="-1.78764">
<ele>142</ele>
<time>2019-10-11T00:12:32Z</time></trkpt>
<trkpt lat="52.35184" lon="-1.78731">
<ele>142</ele>
<time>2019-10-11T00:12:37Z</time></trkpt>
<trkpt lat="52.35143" lon="-1.78671">
<ele>143</ele>
<time>2019-10-11T00:12:48Z</time></trkpt>
<trkpt lat="52.35123" lon="-1.78626">
<ele>142</ele>
<time>2019-10-11T00:12:55Z</time></trkpt>
<trkpt lat="52.35103" lon="-1.78544">
<ele>141</ele>
<time>2019-10-11T00:13:05Z</time></trkpt>
<trkpt lat="52.35011" lon="-1.78269">
<ele>142</ele>
<time>2019-10-11T00:13:44Z</time></trkpt>
<trkpt lat="52.34941" lon="-1.78067">
<ele>140</ele>
<time>2019-10-11T00:14:12Z</time></trkpt>
<trkpt lat="52.34894" lon="-1.77954">
<ele>141</ele>
<time>2019-10-11T00:14:29Z</time></trkpt>
<trkpt lat="52.34886" lon="-1.77922">
<ele>142</ele>
<time>2019-10-11T00:14:33Z</time></trkpt>
<trkpt lat="52.34892" lon="-1.77887">
<ele>142</ele>
<time>2019-10-11T00:14:38Z</time></trkpt>
<trkpt lat="52.34816" lon="-1.77871">
<ele>143</ele>
<time>2019-10-11T00:14:53Z</time></trkpt>
<trkpt lat="52.34791" lon="-1.77874">
<ele>143</ele>
<time>2019-10-11T00:14:58Z</time></trkpt>
<trkpt lat="52.34735" lon="-1.77899">
<ele>142</ele>
<time>2019-10-11T00:15:10Z</time></trkpt>
<trkpt lat="52.34672" lon="-1.77965">
<ele>137</ele>
<time>2019-10-11T00:15:25Z</time></trkpt>
<trkpt lat="52.34503" lon="-1.78119">
<ele>130</ele>
<time>2019-10-11T00:16:03Z</time></trkpt>
<trkpt lat="52.34449" lon="-1.78142">
<ele>131</ele>
<time>2019-10-11T00:16:15Z</time></trkpt>
<trkpt lat="52.34307" lon="-1.7832">
<ele>126</ele>
<time>2019-10-11T00:16:50Z</time></trkpt>
<trkpt lat="52.34279" lon="-1.78346">
<ele>125</ele>
<time>2019-10-11T00:16:57Z</time></trkpt>
<trkpt lat="52.34161" lon="-1.78353">
<ele>124</ele>
<time>2019-10-11T00:17:21Z</time></trkpt>
<trkpt lat="52.34068" lon="-1.78342">
<ele>121</ele>
<time>2019-10-11T00:17:39Z</time></trkpt>
<trkpt lat="52.34032" lon="-1.78347">
<ele>121</ele>
<time>2019-10-11T00:17:46Z</time></trkpt>
<trkpt lat="52.33991" lon="-1.78367">
<ele>122</ele>
<time>2019-10-11T00:17:55Z</time></trkpt>
<trkpt lat="52.33784" lon="-1.78572">
<ele>126</ele>
<time>2019-10-11T00:18:44Z</time></trkpt>
<trkpt lat="52.33725" lon="-1.78646">
<ele>128</ele>
<time>2019-10-11T00:18:58Z</time></trkpt>
<trkpt lat="52.33637" lon="-1.78723">
<ele>132</ele>
<time>2019-10-11T00:19:18Z</time></trkpt>
<trkpt lat="52.33521" lon="-1.78865">
<ele>136</ele>
<time>2019-10-11T00:19:47Z</time></trkpt>
<trkpt lat="52.3342" lon="-1.78932">
<ele>138</ele>
<time>2019-10-11T00:20:09Z</time></trkpt>
<trkpt lat="52.3336" lon="-1.7894">
<ele>139</ele>
<time>2019-10-11T00:20:21Z</time></trkpt>
<trkpt lat="52.33311" lon="-1.78967">
<ele>140</ele>
<time>2019-10-11T00:20:32Z</time></trkpt>
<trkpt lat="52.33276" lon="-1.78975">
<ele>141</ele>
<time>2019-10-11T00:20:39Z</time></trkpt>
<trkpt lat="52.33202" lon="-1.78949">
<ele>141</ele>
<time>2019-10-11T00:20:54Z</time></trkpt>
<trkpt lat="52.32912" lon="-1.78884">
<ele>142</ele>
<time>2019-10-11T00:21:53Z</time></trkpt>
<trkpt lat="52.32823" lon="-1.78793">
<ele>139</ele>
<time>2019-10-11T00:22:14Z</time></trkpt>
<trkpt lat="52.32807" lon="-1.78766">
<ele>139</ele>
<time>2019-10-11T00:22:18Z</time></trkpt>
<trkpt lat="52.32784" lon="-1.78673">
<ele>139</ele>
<time>2019-10-11T00:22:31Z</time></trkpt>
<trkpt lat="52.32779" lon="-1.78435">
<ele>137</ele>
<time>2019-10-11T00:23:00Z</time></trkpt>
<trkpt lat="52.32756" lon="-1.78248">
<ele>137</ele>
<time>2019-10-11T00:23:23Z</time></trkpt>
<trkpt lat="52.32696" lon="-1.78041">
<ele>138</ele>
<time>2019-10-11T00:23:51Z</time></trkpt>
<trkpt lat="52.32653" lon="-1.77953">
<ele>139</ele>
<time>2019-10-11T00:24:05Z</time></trkpt>
<trkpt lat="52.32445" lon="-1.77664">
<ele>137</ele>
<time>2019-10-11T00:25:00Z</time></trkpt>
<trkpt lat="52.32307" lon="-1.77527">
<ele>137</ele>
<time>2019-10-11T00:25:32Z</time></trkpt>
<trkpt lat="52.32332" lon="-1.77212">
<ele>137</ele>
<time>2019-10-11T00:26:11Z</time></trkpt>
<trkpt lat="52.32351" lon="-1.77036">
<ele>137</ele>
<time>2019-10-11T00:26:33Z</time></trkpt>
<trkpt lat="52.3238" lon="-1.7688">
<ele>138</ele>
<time>2019-10-11T00:26:53Z</time></trkpt>
<trkpt lat="52.3241" lon="-1.76549">
<ele>136</ele>
<time>2019-10-11T00:27:34Z</time></trkpt>
<trkpt lat="52.32425" lon="-1.76477">
<ele>135</ele>
<time>2019-10-11T00:27:43Z</time></trkpt>
<trkpt lat="52.32451" lon="-1.76467">
<ele>135</ele>
<time>2019-10-11T00:27:48Z</time></trkpt>
<trkpt lat="52.32433" lon="-1.76438">
<ele>135</ele>
<time>2019-10-11T00:27:53Z</time></trkpt>
<trkpt lat="52.32436" lon="-1.76396">
<ele>134</ele>
<time>2019-10-11T00:27:59Z</time></trkpt>
<trkpt lat="52.32448" lon="-1.7633">
<ele>134</ele>
<time>2019-10-11T00:28:07Z</time></trkpt>
<trkpt lat="52.32491" lon="-1.76184">
<ele>135</ele>
<time>2019-10-11T00:28:27Z</time></trkpt>
<trkpt lat="52.32499" lon="-1.76136">
<ele>135</ele>
<time>2019-10-11T00:28:33Z</time></trkpt>
<trkpt lat="52.32502" lon="-1.76018">
<ele>134</ele>
<time>2019-10-11T00:28:47Z</time></trkpt>
<trkpt lat="52.32474" lon="-1.75911">
<ele>132</ele>
<time>2019-10-11T00:29:02Z</time></trkpt>
<trkpt lat="52.32445" lon="-1.75854">
<ele>132</ele>
<time>2019-10-11T00:29:11Z</time></trkpt>
<trkpt lat="52.32375" lon="-1.75786">
<ele>130</ele>
<time>2019-10-11T00:29:27Z</time></trkpt>
<trkpt lat="52.32284" lon="-1.75671">
<ele>127</ele>
<time>2019-10-11T00:29:50Z</time></trkpt>
<trkpt lat="52.32247" lon="-1.75533">
<ele>131</ele>
<time>2019-10-11T00:30:09Z</time></trkpt>
<trkpt lat="52.32189" lon="-1.7513">
<ele>116</ele>
<time>2019-10-11T00:30:59Z</time></trkpt>
<trkpt lat="52.32185" lon="-1.75">
<ele>112</ele>
<time>2019-10-11T00:31:15Z</time></trkpt>
<trkpt lat="52.3216" lon="-1.74897">
<ele>109</ele>
<time>2019-10-11T00:31:29Z</time></trkpt>
<trkpt lat="52.32141" lon="-1.74516">
<ele>99</ele>
<time>2019-10-11T00:32:16Z</time></trkpt>
<trkpt lat="52.32153" lon="-1.74459">
<ele>100</ele>
<time>2019-10-11T00:32:23Z</time></trkpt>
<trkpt lat="52.32209" lon="-1.74293">
<ele>102</ele>
<time>2019-10-11T00:32:46Z</time></trkpt>
<trkpt lat="52.3221" lon="-1.74266">
<ele>101</ele>
<time>2019-10-11T00:32:50Z</time></trkpt>
<trkpt lat="52.32196" lon="-1.74241">
<ele>101</ele>
<time>2019-10-11T00:32:54Z</time></trkpt>
<trkpt lat="52.32166" lon="-1.7426">
<ele>101</ele>
<time>2019-10-11T00:33:00Z</time></trkpt>
<trkpt lat="52.32134" lon="-1.74257">
<ele>100</ele>
<time>2019-10-11T00:33:07Z</time></trkpt>
<trkpt lat="52.32" lon="-1.74197">
<ele>97</ele>
<time>2019-10-11T00:33:34Z</time></trkpt>
<trkpt lat="52.31925" lon="-1.74144">
<ele>100</ele>
<time>2019-10-11T00:33:51Z</time></trkpt>
<trkpt lat="52.31903" lon="-1.74111">
<ele>102</ele>
<time>2019-10-11T00:33:57Z</time></trkpt>
<trkpt lat="52.31898" lon="-1.73863">
<ele>107</ele>
<time>2019-10-11T00:34:27Z</time></trkpt>
<trkpt lat="52.31903" lon="-1.73675">
<ele>114</ele>
<time>2019-10-11T00:34:50Z</time></trkpt>
<trkpt lat="52.31912" lon="-1.7363">
<ele>114</ele>
<time>2019-10-11T00:34:56Z</time></trkpt>
<trkpt lat="52.31961" lon="-1.73529">
<ele>115</ele>
<time>2019-10-11T00:35:12Z</time></trkpt>
<trkpt lat="52.31959" lon="-1.7351">
<ele>115</ele>
<time>2019-10-11T00:35:14Z</time></trkpt>
<trkpt lat="52.31868" lon="-1.73469">
<ele>113</ele>
<time>2019-10-11T00:35:33Z</time></trkpt>
<trkpt lat="52.3177" lon="-1.73381">
<ele>108</ele>
<time>2019-10-11T00:35:55Z</time></trkpt>
<trkpt lat="52.31678" lon="-1.73315">
<ele>107</ele>
<time>2019-10-11T00:36:16Z</time></trkpt>
<trkpt lat="52.31606" lon="-1.73235">
<ele>107</ele>
<time>2019-10-11T00:36:33Z</time></trkpt>
<trkpt lat="52.31527" lon="-1.73171">
<ele>106</ele>
<time>2019-10-11T00:36:51Z</time></trkpt>
<trkpt lat="52.31413" lon="-1.73108">
<ele>104</ele>
<time>2019-10-11T00:37:15Z</time></trkpt>
<trkpt lat="52.31302" lon="-1.73025">
<ele>103</ele>
<time>2019-10-11T00:37:39Z</time></trkpt>
<trkpt lat="52.31244" lon="-1.72955">
<ele>99</ele>
<time>2019-10-11T00:37:54Z</time></trkpt>
<trkpt lat="52.31134" lon="-1.72856">
<ele>95</ele>
<time>2019-10-11T00:38:19Z</time></trkpt>
<trkpt lat="52.31048" lon="-1.72802">
<ele>94</ele>
<time>2019-10-11T00:38:37Z</time></trkpt>
<trkpt lat="52.31007" lon="-1.72792">
<ele>94</ele>
<time>2019-10-11T00:38:46Z</time></trkpt>
<trkpt lat="52.30974" lon="-1.72769">
<ele>95</ele>
<time>2019-10-11T00:38:53Z</time></trkpt>
<trkpt lat="52.30889" lon="-1.72665">
<ele>93</ele>
<time>2019-10-11T00:39:14Z</time></trkpt>
<trkpt lat="52.30836" lon="-1.72575">
<ele>90</ele>
<time>2019-10-11T00:39:29Z</time></trkpt>
<trkpt lat="52.30771" lon="-1.72551">
<ele>89</ele>
<time>2019-10-11T00:39:43Z</time></trkpt>
<trkpt lat="52.30756" lon="-1.72504">
<ele>88</ele>
<time>2019-10-11T00:39:49Z</time></trkpt>
<trkpt lat="52.30706" lon="-1.72423">
<ele>88</ele>
<time>2019-10-11T00:40:03Z</time></trkpt>
<trkpt lat="52.30659" lon="-1.72305">
<ele>89</ele>
<time>2019-10-11T00:40:21Z</time></trkpt>
<trkpt lat="52.30652" lon="-1.72264">
<ele>90</ele>
<time>2019-10-11T00:40:26Z</time></trkpt>
<trkpt lat="52.30664" lon="-1.7223">
<ele>91</ele>
<time>2019-10-11T00:40:31Z</time></trkpt>
<trkpt lat="52.30757" lon="-1.72086">
<ele>90</ele>
<time>2019-10-11T00:40:56Z</time></trkpt>
<trkpt lat="52.3079" lon="-1.71988">
<ele>92</ele>
<time>2019-10-11T00:41:10Z</time></trkpt>
<trkpt lat="52.30802" lon="-1.71904">
<ele>91</ele>
<time>2019-10-11T00:41:21Z</time></trkpt>
<trkpt lat="52.3079" lon="-1.71796">
<ele>90</ele>
<time>2019-10-11T00:41:34Z</time></trkpt>
<trkpt lat="52.30753" lon="-1.7161">
<ele>90</ele>
<time>2019-10-11T00:41:58Z</time></trkpt>
<trkpt lat="52.30779" lon="-1.71155">
<ele>95</ele>
<time>2019-10-11T00:42:54Z</time></trkpt>
<trkpt lat="52.30764" lon="-1.70941">
<ele>101</ele>
<time>2019-10-11T00:43:20Z</time></trkpt>
<trkpt lat="52.30727" lon="-1.70746">
<ele>108</ele>
<time>2019-10-11T00:43:45Z</time></trkpt>
<trkpt lat="52.30703" lon="-1.70691">
<ele>109</ele>
<time>2019-10-11T00:43:54Z</time></trkpt>
<trkpt lat="52.30643" lon="-1.70658">
<ele>113</ele>
<time>2019-10-11T00:44:06Z</time></trkpt>
<trkpt lat="52.30603" lon="-1.70622">
<ele>114</ele>
<time>2019-10-11T00:44:15Z</time></trkpt>
<trkpt lat="52.30497" lon="-1.70464">
<ele>114</ele>
<time>2019-10-11T00:44:44Z</time></trkpt>
<trkpt lat="52.30364" lon="-1.70314">
<ele>115</ele>
<time>2019-10-11T00:45:17Z</time></trkpt>
<trkpt lat="52.30329" lon="-1.70248">
<ele>114</ele>
<time>2019-10-11T00:45:27Z</time></trkpt>
<trkpt lat="52.3028" lon="-1.70086">
<ele>112</ele>
<time>2019-10-11T00:45:49Z</time></trkpt>
<trkpt lat="52.30251" lon="-1.70059">
<ele>113</ele>
<time>2019-10-11T00:45:56Z</time></trkpt>
<trkpt lat="52.30216" lon="-1.70071">
<ele>115</ele>
<time>2019-10-11T00:46:03Z</time></trkpt>
<trkpt lat="52.30197" lon="-1.70058">
<ele>117</ele>
<time>2019-10-11T00:46:07Z</time></trkpt>
<trkpt lat="52.30174" lon="-1.69911">
<ele>118</ele>
<time>2019-10-11T00:46:26Z</time></trkpt>
<trkpt lat="52.30183" lon="-1.69713">
<ele>119</ele>
<time>2019-10-11T00:46:50Z</time></trkpt>
<trkpt lat="52.30171" lon="-1.6961">
<ele>120</ele>
<time>2019-10-11T00:47:03Z</time></trkpt>
<trkpt lat="52.30128" lon="-1.69531">
<ele>119</ele>
<time>2019-10-11T00:47:16Z</time></trkpt>
<trkpt lat="52.3005" lon="-1.69431">
<ele>120</ele>
<time>2019-10-11T00:47:36Z</time></trkpt>
<trkpt lat="52.29984" lon="-1.6936">
<ele>122</ele>
<time>2019-10-11T00:47:52Z</time></trkpt>
<trkpt lat="52.29832" lon="-1.69515">
<ele>120</ele>
<time>2019-10-11T00:48:28Z</time></trkpt>
<trkpt lat="52.29728" lon="-1.69575">
<ele>116</ele>
<time>2019-10-11T00:48:50Z</time></trkpt>
<trkpt lat="52.2963" lon="-1.69655">
<ele>115</ele>
<time>2019-10-11T00:49:12Z</time></trkpt>
<trkpt lat="52.29567" lon="-1.69725">
<ele>117</ele>
<time>2019-10-11T00:49:27Z</time></trkpt>
<trkpt lat="52.29546" lon="-1.69694">
<ele>117</ele>
<time>2019-10-11T00:49:33Z</time></trkpt>
<trkpt lat="52.29532" lon="-1.69645">
<ele>116</ele>
<time>2019-10-11T00:49:39Z</time></trkpt>
<trkpt lat="52.29499" lon="-1.69449">
<ele>118</ele>
<time>2019-10-11T00:50:04Z</time></trkpt>
<trkpt lat="52.29465" lon="-1.69314">
<ele>122</ele>
<time>2019-10-11T00:50:22Z</time></trkpt>
<trkpt lat="52.29461" lon="-1.69266">
<ele>123</ele>
<time>2019-10-11T00:50:28Z</time></trkpt>
<trkpt lat="52.29468" lon="-1.69161">
<ele>122</ele>
<time>2019-10-11T00:50:41Z</time></trkpt>
<trkpt lat="52.29458" lon="-1.69084">
<ele>123</ele>
<time>2019-10-11T00:50:51Z</time></trkpt>
<trkpt lat="52.29367" lon="-1.68888">
<ele>122</ele>
<time>2019-10-11T00:51:21Z</time></trkpt>
<trkpt lat="52.29265" lon="-1.68627">
<ele>117</ele>
<time>2019-10-11T00:51:59Z</time></trkpt>
<trkpt lat="52.29188" lon="-1.68472">
<ele>111</ele>
<time>2019-10-11T00:52:23Z</time></trkpt>
<trkpt lat="52.28976" lon="-1.68082">
<ele>101</ele>
<time>2019-10-11T00:53:27Z</time></trkpt>
<trkpt lat="52.28943" lon="-1.67988">
<ele>99</ele>
<time>2019-10-11T00:53:40Z</time></trkpt>
<trkpt lat="52.28857" lon="-1.67687">
<ele>101</ele>
<time>2019-10-11T00:54:21Z</time></trkpt>
<trkpt lat="52.28835" lon="-1.67633">
<ele>104</ele>
<time>2019-10-11T00:54:29Z</time></trkpt>
<trkpt lat="52.28827" lon="-1.67583">
<ele>106</ele>
<time>2019-10-11T00:54:35Z</time></trkpt>
<trkpt lat="52.28838" lon="-1.6748">
<ele>108</ele>
<time>2019-10-11T00:54:48Z</time></trkpt>
<trkpt lat="52.28836" lon="-1.67405">
<ele>110</ele>
<time>2019-10-11T00:54:57Z</time></trkpt>
<trkpt lat="52.2881" lon="-1.67201">
<ele>111</ele>
<time>2019-10-11T00:55:23Z</time></trkpt>
<trkpt lat="52.28794" lon="-1.67129">
<ele>111</ele>
<time>2019-10-11T00:55:32Z</time></trkpt>
<trkpt lat="52.28779" lon="-1.671">
<ele>111</ele>
<time>2019-10-11T00:55:37Z</time></trkpt>
<trkpt lat="52.28765" lon="-1.67093">
<ele>111</ele>
<time>2019-10-11T00:55:40Z</time></trkpt>
<trkpt lat="52.28641" lon="-1.67084">
<ele>109</ele>
<time>2019-10-11T00:56:05Z</time></trkpt>
<trkpt lat="52.28628" lon="-1.67067">
<ele>109</ele>
<time>2019-10-11T00:56:08Z</time></trkpt>
<trkpt lat="52.28596" lon="-1.66941">
<ele>110</ele>
<time>2019-10-11T00:56:25Z</time></trkpt>
<trkpt lat="52.28561" lon="-1.66749">
<ele>116</ele>
<time>2019-10-11T00:56:49Z</time></trkpt>
<trkpt lat="52.28449" lon="-1.66478">
<ele>117</ele>
<time>2019-10-11T00:57:30Z</time></trkpt>
<trkpt lat="52.28226" lon="-1.66682">
<ele>120</ele>
<time>2019-10-11T00:58:21Z</time></trkpt>
<trkpt lat="52.28114" lon="-1.66636">
<ele>114</ele>
<time>2019-10-11T00:58:44Z</time></trkpt>
<trkpt lat="52.28076" lon="-1.66637">
<ele>114</ele>
<time>2019-10-11T00:58:52Z</time></trkpt>
<trkpt lat="52.27994" lon="-1.66726">
<ele>113</ele>
<time>2019-10-11T00:59:11Z</time></trkpt>
<trkpt lat="52.2797" lon="-1.66736">
<ele>112</ele>
<time>2019-10-11T00:59:16Z</time></trkpt>
<trkpt lat="52.27841" lon="-1.66672">
<ele>108</ele>
<time>2019-10-11T00:59:43Z</time></trkpt>
<trkpt lat="52.27744" lon="-1.66645">
<ele>106</ele>
<time>2019-10-11T01:00:03Z</time></trkpt>
<trkpt lat="52.27692" lon="-1.66651">
<ele>103</ele>
<time>2019-10-11T01:00:13Z</time></trkpt>
<trkpt lat="52.27617" lon="-1.66591">
<ele>100</ele>
<time>2019-10-11T01:00:30Z</time></trkpt>
<trkpt lat="52.27533" lon="-1.66558">
<ele>98</ele>
<time>2019-10-11T01:00:47Z</time></trkpt>
<trkpt lat="52.27408" lon="-1.66448">
<ele>91</ele>
<time>2019-10-11T01:01:16Z</time></trkpt>
<trkpt lat="52.27387" lon="-1.66452">
<ele>92</ele>
<time>2019-10-11T01:01:20Z</time></trkpt>
<trkpt lat="52.27373" lon="-1.66519">
<ele>93</ele>
<time>2019-10-11T01:01:29Z</time></trkpt>
<trkpt lat="52.27298" lon="-1.6646">
<ele>93</ele>
<time>2019-10-11T01:01:45Z</time></trkpt>
<trkpt lat="52.27267" lon="-1.66451">
<ele>94</ele>
<time>2019-10-11T01:01:52Z</time></trkpt>
<trkpt lat="52.27237" lon="-1.66461">
<ele>94</ele>
<time>2019-10-11T01:01:58Z</time></trkpt>
<trkpt lat="52.27189" lon="-1.66514">
<ele>94</ele>
<time>2019-10-11T01:02:10Z</time></trkpt>
<trkpt lat="52.27164" lon="-1.66518">
<ele>93</ele>
<time>2019-10-11T01:02:15Z</time></trkpt>
<trkpt lat="52.27081" lon="-1.66501">
<ele>88</ele>
<time>2019-10-11T01:02:31Z</time></trkpt>
<trkpt lat="52.26887" lon="-1.6659">
<ele>95</ele>
<time>2019-10-11T01:03:12Z</time></trkpt>
<trkpt lat="52.26907" lon="-1.66469">
<ele>91</ele>
<time>2019-10-11T01:03:27Z</time></trkpt>
<trkpt lat="52.26903" lon="-1.664">
<ele>89</ele>
<time>2019-10-11T01:03:36Z</time></trkpt>
<trkpt lat="52.26891" lon="-1.663">
<ele>88</ele>
<time>2019-10-11T01:03:48Z</time></trkpt>
<trkpt lat="52.26856" lon="-1.66117">
<ele>86</ele>
<time>2019-10-11T01:04:12Z</time></trkpt>
<trkpt lat="52.26854" lon="-1.66072">
<ele>85</ele>
<time>2019-10-11T01:04:17Z</time></trkpt>
<trkpt lat="52.26862" lon="-1.65785">
<ele>78</ele>
<time>2019-10-11T01:04:52Z</time></trkpt>
<trkpt lat="52.26885" lon="-1.65578">
<ele>78</ele>
<time>2019-10-11T01:05:18Z</time></trkpt>
<trkpt lat="52.26855" lon="-1.6538">
<ele>77</ele>
<time>2019-10-11T01:05:43Z</time></trkpt>
<trkpt lat="52.26854" lon="-1.65325">
<ele>75</ele>
<time>2019-10-11T01:05:50Z</time></trkpt>
<trkpt lat="52.26875" lon="-1.65237">
<ele>76</ele>
<time>2019-10-11T01:06:01Z</time></trkpt>
<trkpt lat="52.26902" lon="-1.65058">
<ele>75</ele>
<time>2019-10-11T01:06:24Z</time></trkpt>
<trkpt lat="52.2696" lon="-1.64795">
<ele>73</ele>
<time>2019-10-11T01:06:58Z</time></trkpt>
<trkpt lat="52.27002" lon="-1.64662">
<ele>74</ele>
<time>2019-10-11T01:07:17Z</time></trkpt>
<trkpt lat="52.27068" lon="-1.64521">
<ele>72</ele>
<time>2019-10-11T01:07:38Z</time></trkpt>
<trkpt lat="52.27093" lon="-1.64442">
<ele>73</ele>
<time>2019-10-11T01:07:49Z</time></trkpt>
<trkpt lat="52.27105" lon="-1.64319">
<ele>74</ele>
<time>2019-10-11T01:08:05Z</time></trkpt>
<trkpt lat="52.27106" lon="-1.64154">
<ele>77</ele>
<time>2019-10-11T01:08:25Z</time></trkpt>
<trkpt lat="52.27087" lon="-1.63894">
<ele>83</ele>
<time>2019-10-11T01:08:57Z</time></trkpt>
<trkpt lat="52.27136" lon="-1.63573">
<ele>72</ele>
<time>2019-10-11T01:09:38Z</time></trkpt>
<trkpt lat="52.27165" lon="-1.63462">
<ele>70</ele>
<time>2019-10-11T01:09:52Z</time></trkpt>
<trkpt lat="52.27169" lon="-1.63421">
<ele>69</ele>
<time>2019-10-11T01:09:57Z</time></trkpt>
<trkpt lat="52.27119" lon="-1.63402">
<ele>68</ele>
<time>2019-10-11T01:10:08Z</time></trkpt>
<trkpt lat="52.26986" lon="-1.63261">
<ele>65</ele>
<time>2019-10-11T01:10:39Z</time></trkpt>
<trkpt lat="52.26898" lon="-1.63149">
<ele>64</ele>
<time>2019-10-11T01:11:02Z</time></trkpt>
<trkpt lat="52.26827" lon="-1.63096">
<ele>63</ele>
<time>2019-10-11T01:11:17Z</time></trkpt>
<trkpt lat="52.2676" lon="-1.63074">
<ele>63</ele>
<time>2019-10-11T01:11:31Z</time></trkpt>
<trkpt lat="52.26588" lon="-1.63059">
<ele>62</ele>
<time>2019-10-11T01:12:06Z</time></trkpt>
<trkpt lat="52.26421" lon="-1.63025">
<ele>69</ele>
<time>2019-10-11T01:12:39Z</time></trkpt>
<trkpt lat="52.26372" lon="-1.62996">
<ele>69</ele>
<time>2019-10-11T01:12:50Z</time></trkpt>
<trkpt lat="52.26328" lon="-1.62945">
<ele>68</ele>
<time>2019-10-11T01:13:01Z</time></trkpt>
<trkpt lat="52.26301" lon="-1.62891">
<ele>66</ele>
<time>2019-10-11T01:13:09Z</time></trkpt>
<trkpt lat="52.26167" lon="-1.62466">
<ele>55</ele>
<time>2019-10-11T01:14:08Z</time></trkpt>
<trkpt lat="52.26145" lon="-1.6243">
<ele>54</ele>
<time>2019-10-11T01:14:14Z</time></trkpt>
<trkpt lat="52.26079" lon="-1.62367">
<ele>53</ele>
<time>2019-10-11T01:14:29Z</time></trkpt>
<trkpt lat="52.26038" lon="-1.62317">
<ele>53</ele>
<time>2019-10-11T01:14:40Z</time></trkpt>
<trkpt lat="52.25999" lon="-1.62232">
<ele>53</ele>
<time>2019-10-11T01:14:53Z</time></trkpt>
<trkpt lat="52.25944" lon="-1.62071">
<ele>51</ele>
<time>2019-10-11T01:15:15Z</time></trkpt>
<trkpt lat="52.2596" lon="-1.6211">
<ele>52</ele>
<time>2019-10-11T01:15:21Z</time></trkpt>
<trkpt lat="52.25949" lon="-1.62107">
<ele>51</ele>
<time>2019-10-11T01:15:23Z</time></trkpt>
<trkpt lat="52.2594" lon="-1.62094">
<ele>51</ele>
<time>2019-10-11T01:15:26Z</time></trkpt>
<trkpt lat="52.25925" lon="-1.62057">
<ele>51</ele>
<time>2019-10-11T01:15:31Z</time></trkpt>
<trkpt lat="52.25898" lon="-1.62041">
<ele>51</ele>
<time>2019-10-11T01:15:37Z</time></trkpt>
<trkpt lat="52.25882" lon="-1.61959">
<ele>51</ele>
<time>2019-10-11T01:15:47Z</time></trkpt>
<trkpt lat="52.2582" lon="-1.6193">
<ele>51</ele>
<time>2019-10-11T01:16:00Z</time></trkpt>
<trkpt lat="52.25807" lon="-1.61898">
<ele>51</ele>
<time>2019-10-11T01:16:05Z</time></trkpt>
<trkpt lat="52.25801" lon="-1.61856">
<ele>50</ele>
<time>2019-10-11T01:16:10Z</time></trkpt>
<trkpt lat="52.25747" lon="-1.61794">
<ele>50</ele>
<time>2019-10-11T01:16:24Z</time></trkpt>
<trkpt lat="52.25387" lon="-1.61465">
<ele>52</ele>
<time>2019-10-11T01:17:46Z</time></trkpt>
<trkpt lat="52.25339" lon="-1.61403">
<ele>52</ele>
<time>2019-10-11T01:17:59Z</time></trkpt>
<trkpt lat="52.25154" lon="-1.61284">
<ele>50</ele>
<time>2019-10-11T01:18:38Z</time></trkpt>
<trkpt lat="52.24953" lon="-1.61133">
<ele>49</ele>
<time>2019-10-11T01:19:23Z</time></trkpt>
<trkpt lat="52.24921" lon="-1.61087">
<ele>48</ele>
<time>2019-10-11T01:19:31Z</time></trkpt>
<trkpt lat="52.24857" lon="-1.6103">
<ele>48</ele>
<time>2019-10-11T01:19:46Z</time></trkpt>
<trkpt lat="52.24601" lon="-1.60905">
<ele>45</ele>
<time>2019-10-11T01:20:39Z</time></trkpt>
<trkpt lat="52.2441" lon="-1.60717">
<ele>49</ele>
<time>2019-10-11T01:21:24Z</time></trkpt>
<trkpt lat="52.24349" lon="-1.60688">
<ele>50</ele>
<time>2019-10-11T01:21:37Z</time></trkpt>
<trkpt lat="52.2425" lon="-1.60661">
<ele>50</ele>
<time>2019-10-11T01:21:57Z</time></trkpt>
<trkpt lat="52.24109" lon="-1.60639">
<ele>49</ele>
<time>2019-10-11T01:22:25Z</time></trkpt>
<trkpt lat="52.24068" lon="-1.60297">
<ele>49</ele>
<time>2019-10-11T01:23:08Z</time></trkpt>
<trkpt lat="52.24022" lon="-1.60145">
<ele>49</ele>
<time>2019-10-11T01:23:29Z</time></trkpt>
<trkpt lat="52.2401" lon="-1.59979">
<ele>48</ele>
<time>2019-10-11T01:23:49Z</time></trkpt>
<trkpt lat="52.24006" lon="-1.59965">
<ele>48</ele>
<time>2019-10-11T01:23:51Z</time></trkpt>
<trkpt lat="52.23979" lon="-1.59934">
<ele>48</ele>
<time>2019-10-11T01:23:58Z</time></trkpt>
<trkpt lat="52.23964" lon="-1.59895">
<ele>48</ele>
<time>2019-10-11T01:24:04Z</time></trkpt>
<trkpt lat="52.23924" lon="-1.59655">
<ele>48</ele>
<time>2019-10-11T01:24:34Z</time></trkpt>
<trkpt lat="52.23912" lon="-1.5954">
<ele>49</ele>
<time>2019-10-11T01:24:48Z</time></trkpt>
<trkpt lat="52.23914" lon="-1.59325">
<ele>50</ele>
<time>2019-10-11T01:25:15Z</time></trkpt>
<trkpt lat="52.23887" lon="-1.59198">
<ele>51</ele>
<time>2019-10-11T01:25:31Z</time></trkpt>
<trkpt lat="52.23828" lon="-1.59048">
<ele>53</ele>
<time>2019-10-11T01:25:53Z</time></trkpt>
<trkpt lat="52.23811" lon="-1.58983">
<ele>54</ele>
<time>2019-10-11T01:26:02Z</time></trkpt>
<trkpt lat="52.23807" lon="-1.58784">
<ele>57</ele>
<time>2019-10-11T01:26:26Z</time></trkpt>
<trkpt lat="52.23798" lon="-1.58721">
<ele>58</ele>
<time>2019-10-11T01:26:34Z</time></trkpt>
<trkpt lat="52.23779" lon="-1.58667">
<ele>59</ele>
<time>2019-10-11T01:26:42Z</time></trkpt>
<trkpt lat="52.23767" lon="-1.58578">
<ele>62</ele>
<time>2019-10-11T01:26:53Z</time></trkpt>
<trkpt lat="52.2377" lon="-1.58358">
<ele>67</ele>
<time>2019-10-11T01:27:20Z</time></trkpt>
<trkpt lat="52.23781" lon="-1.58243">
<ele>71</ele>
<time>2019-10-11T01:27:34Z</time></trkpt>
<trkpt lat="52.23764" lon="-1.58085">
<ele>79</ele>
<time>2019-10-11T01:27:54Z</time></trkpt>
<trkpt lat="52.23727" lon="-1.57944">
<ele>76</ele>
<time>2019-10-11T01:28:13Z</time></trkpt>
<trkpt lat="52.2363" lon="-1.57638">
<ele>78</ele>
<time>2019-10-11T01:28:55Z</time></trkpt>
<trkpt lat="52.23542" lon="-1.57252">
<ele>82</ele>
<time>2019-10-11T01:29:46Z</time></trkpt>
<trkpt lat="52.23413" lon="-1.56807">
<ele>71</ele>
<time>2019-10-11T01:30:46Z</time></trkpt>
<trkpt lat="52.23365" lon="-1.56603">
<ele>69</ele>
<time>2019-10-11T01:31:13Z</time></trkpt>
<trkpt lat="52.23358" lon="-1.56518">
<ele>71</ele>
<time>2019-10-11T01:31:23Z</time></trkpt>
<trkpt lat="52.23368" lon="-1.56425">
<ele>72</ele>
<time>2019-10-11T01:31:35Z</time></trkpt>
<trkpt lat="52.2337" lon="-1.56154">
<ele>73</ele>
<time>2019-10-11T01:32:08Z</time></trkpt>
<trkpt lat="52.23377" lon="-1.56053">
<ele>78</ele>
<time>2019-10-11T01:32:21Z</time></trkpt>
<trkpt lat="52.23414" lon="-1.56064">
<ele>78</ele>
<time>2019-10-11T01:32:28Z</time></trkpt>
<trkpt lat="52.23537" lon="-1.5603">
<ele>78</ele>
<time>2019-10-11T01:32:53Z</time></trkpt>
<trkpt lat="52.23587" lon="-1.5603">
<ele>76</ele>
<time>2019-10-11T01:33:03Z</time></trkpt>
<trkpt lat="52.23678" lon="-1.56043">
<ele>72</ele>
<time>2019-10-11T01:33:22Z</time></trkpt>
<trkpt lat="52.23697" lon="-1.5603">
<ele>72</ele>
<time>2019-10-11T01:33:26Z</time></trkpt>
<trkpt lat="52.23698" lon="-1.55982">
<ele>74</ele>
<time>2019-10-11T01:33:32Z</time></trkpt>
<trkpt lat="52.23651" lon="-1.5572">
<ele>78</ele>
<time>2019-10-11T01:34:05Z</time></trkpt>
<trkpt lat="52.23644" lon="-1.55564">
<ele>81</ele>
<time>2019-10-11T01:34:24Z</time></trkpt>
<trkpt lat="52.23657" lon="-1.55473">
<ele>82</ele>
<time>2019-10-11T01:34:36Z</time></trkpt>
<trkpt lat="52.23727" lon="-1.5526">
<ele>82</ele>
<time>2019-10-11T01:35:05Z</time></trkpt>
<trkpt lat="52.23603" lon="-1.55187">
<ele>89</ele>
<time>2019-10-11T01:35:32Z</time></trkpt>
<trkpt lat="52.23255" lon="-1.54938">
<ele>95</ele>
<time>2019-10-11T01:36:48Z</time></trkpt>
<trkpt lat="52.23188" lon="-1.54876">
<ele>97</ele>
<time>2019-10-11T01:37:03Z</time></trkpt>
<trkpt lat="52.23121" lon="-1.54779">
<ele>96</ele>
<time>2019-10-11T01:37:21Z</time></trkpt>
<trkpt lat="52.23079" lon="-1.54819">
<ele>100</ele>
<time>2019-10-11T01:37:31Z</time></trkpt>
<trkpt lat="52.23045" lon="-1.54821">
<ele>102</ele>
<time>2019-10-11T01:37:38Z</time></trkpt>
<trkpt lat="52.22888" lon="-1.54724">
<ele>105</ele>
<time>2019-10-11T01:38:11Z</time></trkpt>
<trkpt lat="52.22782" lon="-1.54669">
<ele>101</ele>
<time>2019-10-11T01:38:34Z</time></trkpt>
<trkpt lat="52.22752" lon="-1.5465">
<ele>100</ele>
<time>2019-10-11T01:38:40Z</time></trkpt>
<trkpt lat="52.22692" lon="-1.54594">
<ele>99</ele>
<time>2019-10-11T01:38:54Z</time></trkpt>
<trkpt lat="52.2253" lon="-1.54407">
<ele>95</ele>
<time>2019-10-11T01:39:34Z</time></trkpt>
<trkpt lat="52.22449" lon="-1.54332">
<ele>89</ele>
<time>2019-10-11T01:39:52Z</time></trkpt>
<trkpt lat="52.22374" lon="-1.54275">
<ele>82</ele>
<time>2019-10-11T01:40:09Z</time></trkpt>
<trkpt lat="52.22318" lon="-1.54242">
<ele>79</ele>
<time>2019-10-11T01:40:21Z</time></trkpt>
<trkpt lat="52.2226" lon="-1.54219">
<ele>77</ele>
<time>2019-10-11T01:40:33Z</time></trkpt>
<trkpt lat="52.22161" lon="-1.54196">
<ele>73</ele>
<time>2019-10-11T01:40:53Z</time></trkpt>
<trkpt lat="52.2199" lon="-1.54206">
<ele>67</ele>
<time>2019-10-11T01:41:27Z</time></trkpt>
<trkpt lat="52.21827" lon="-1.54196">
<ele>65</ele>
<time>2019-10-11T01:42:00Z</time></trkpt>
<trkpt lat="52.21695" lon="-1.54213">
<ele>65</ele>
<time>2019-10-11T01:42:26Z</time></trkpt>
<trkpt lat="52.21612" lon="-1.5426">
<ele>65</ele>
<time>2019-10-11T01:42:44Z</time></trkpt>
<trkpt lat="52.2154" lon="-1.54289">
<ele>65</ele>
<time>2019-10-11T01:42:59Z</time></trkpt>
<trkpt lat="52.21476" lon="-1.54336">
<ele>65</ele>
<time>2019-10-11T01:43:13Z</time></trkpt>
<trkpt lat="52.214" lon="-1.54352">
<ele>64</ele>
<time>2019-10-11T01:43:28Z</time></trkpt>
<trkpt lat="52.21321" lon="-1.54353">
<ele>63</ele>
<time>2019-10-11T01:43:44Z</time></trkpt>
<trkpt lat="52.21155" lon="-1.54475">
<ele>61</ele>
<time>2019-10-11T01:44:21Z</time></trkpt>
<trkpt lat="52.21123" lon="-1.54488">
<ele>61</ele>
<time>2019-10-11T01:44:27Z</time></trkpt>
<trkpt lat="52.21006" lon="-1.5447">
<ele>60</ele>
<time>2019-10-11T01:44:51Z</time></trkpt>
<trkpt lat="52.2092" lon="-1.54467">
<ele>60</ele>
<time>2019-10-11T01:45:08Z</time></trkpt>
<trkpt lat="52.20791" lon="-1.54482">
<ele>61</ele>
<time>2019-10-11T01:45:34Z</time></trkpt>
<trkpt lat="52.20607" lon="-1.54472">
<ele>61</ele>
<time>2019-10-11T01:46:11Z</time></trkpt>
<trkpt lat="52.20597" lon="-1.54497">
<ele>61</ele>
<time>2019-10-11T01:46:15Z</time></trkpt>
<trkpt lat="52.20588" lon="-1.54785">
<ele>62</ele>
<time>2019-10-11T01:46:50Z</time></trkpt>
<trkpt lat="52.20468" lon="-1.54783">
<ele>63</ele>
<time>2019-10-11T01:47:14Z</time></trkpt>
<trkpt lat="52.20448" lon="-1.54773">
<ele>63</ele>
<time>2019-10-11T01:47:18Z</time></trkpt>
<trkpt lat="52.20319" lon="-1.54657">
<ele>65</ele>
<time>2019-10-11T01:47:48Z</time></trkpt>
<trkpt lat="52.20195" lon="-1.54577">
<ele>72</ele>
<time>2019-10-11T01:48:14Z</time></trkpt>
<trkpt lat="52.20177" lon="-1.5457">
<ele>74</ele>
<time>2019-10-11T01:48:18Z</time></trkpt>
<trkpt lat="52.20116" lon="-1.5457">
<ele>75</ele>
<time>2019-10-11T01:48:30Z</time></trkpt>
<trkpt lat="52.20123" lon="-1.5452">
<ele>75</ele>
<time>2019-10-11T01:48:37Z</time></trkpt>
<trkpt lat="52.20118" lon="-1.54427">
<ele>73</ele>
<time>2019-10-11T01:48:48Z</time></trkpt>
<trkpt lat="52.20125" lon="-1.54355">
<ele>71</ele>
<time>2019-10-11T01:48:57Z</time></trkpt>
<trkpt lat="52.20118" lon="-1.54296">
<ele>70</ele>
<time>2019-10-11T01:49:04Z</time></trkpt>
<trkpt lat="52.20152" lon="-1.53793">
<ele>69</ele>
<time>2019-10-11T01:50:07Z</time></trkpt>
<trkpt lat="52.20146" lon="-1.53709">
<ele>69</ele>
<time>2019-10-11T01:50:17Z</time></trkpt>
<trkpt lat="52.20079" lon="-1.5334">
<ele>71</ele>
<time>2019-10-11T01:51:04Z</time></trkpt>
<trkpt lat="52.2005" lon="-1.53279">
<ele>73</ele>
<time>2019-10-11T01:51:14Z</time></trkpt>
<trkpt lat="52.20038" lon="-1.53288">
<ele>73</ele>
<time>2019-10-11T01:51:16Z</time></trkpt>
<trkpt lat="52.20013" lon="-1.53111">
<ele>77</ele>
<time>2019-10-11T01:51:39Z</time></trkpt>
<trkpt lat="52.19972" lon="-1.53003">
<ele>83</ele>
<time>2019-10-11T01:51:54Z</time></trkpt>
<trkpt lat="52.19912" lon="-1.52886">
<ele>88</ele>
<time>2019-10-11T01:52:13Z</time></trkpt>
<trkpt lat="52.19923" lon="-1.52806">
<ele>92</ele>
<time>2019-10-11T01:52:23Z</time></trkpt>
<trkpt lat="52.19923" lon="-1.52725">
<ele>94</ele>
<time>2019-10-11T01:52:33Z</time></trkpt>
<trkpt lat="52.19898" lon="-1.52392">
<ele>96</ele>
<time>2019-10-11T01:53:14Z</time></trkpt>
<trkpt lat="52.19929" lon="-1.5229">
<ele>101</ele>
<time>2019-10-11T01:53:28Z</time></trkpt>
<trkpt lat="52.1999" lon="-1.52185">
<ele>105</ele>
<time>2019-10-11T01:53:46Z</time></trkpt>
<trkpt lat="52.19999" lon="-1.52146">
<ele>105</ele>
<time>2019-10-11T01:53:51Z</time></trkpt>
<trkpt lat="52.20004" lon="-1.52018">
<ele>106</ele>
<time>2019-10-11T01:54:07Z</time></trkpt>
<trkpt lat="52.20001" lon="-1.51924">
<ele>108</ele>
<time>2019-10-11T01:54:18Z</time></trkpt>
<trkpt lat="52.19983" lon="-1.51761">
<ele>107</ele>
<time>2019-10-11T01:54:39Z</time></trkpt>
<trkpt lat="52.19947" lon="-1.51537">
<ele>101</ele>
<time>2019-10-11T01:55:07Z</time></trkpt>
<trkpt lat="52.19959" lon="-1.51393">
<ele>92</ele>
<time>2019-10-11T01:55:25Z</time></trkpt>
<trkpt lat="52.19958" lon="-1.51253">
<ele>90</ele>
<time>2019-10-11T01:55:42Z</time></trkpt>
<trkpt lat="52.20009" lon="-1.50998">
<ele>95</ele>
<time>2019-10-11T01:56:15Z</time></trkpt>
<trkpt lat="52.20041" lon="-1.50915">
<ele>97</ele>
<time>2019-10-11T01:56:27Z</time></trkpt>
<trkpt lat="52.20059" lon="-1.50887">
<ele>98</ele>
<time>2019-10-11T01:56:32Z</time></trkpt>
<trkpt lat="52.20056" lon="-1.50809">
<ele>100</ele>
<time>2019-10-11T01:56:42Z</time></trkpt>
<trkpt lat="52.20009" lon="-1.50542">
<ele>101</ele>
<time>2019-10-11T01:57:16Z</time></trkpt>
<trkpt lat="52.19996" lon="-1.50503">
<ele>100</ele>
<time>2019-10-11T01:57:21Z</time></trkpt>
<trkpt lat="52.19964" lon="-1.50493">
<ele>102</ele>
<time>2019-10-11T01:57:28Z</time></trkpt>
<trkpt lat="52.19944" lon="-1.5052">
<ele>104</ele>
<time>2019-10-11T01:57:33Z</time></trkpt>
<trkpt lat="52.19842" lon="-1.506">
<ele>112</ele>
<time>2019-10-11T01:57:56Z</time></trkpt>
<trkpt lat="52.19749" lon="-1.50627">
<ele>110</ele>
<time>2019-10-11T01:58:15Z</time></trkpt>
<trkpt lat="52.1972" lon="-1.50646">
<ele>110</ele>
<time>2019-10-11T01:58:21Z</time></trkpt>
<trkpt lat="52.19702" lon="-1.50668">
<ele>109</ele>
<time>2019-10-11T01:58:25Z</time></trkpt>
<trkpt lat="52.19606" lon="-1.50843">
<ele>107</ele>
<time>2019-10-11T01:58:54Z</time></trkpt>
<trkpt lat="52.19517" lon="-1.51126">
<ele>104</ele>
<time>2019-10-11T01:59:33Z</time></trkpt>
<trkpt lat="52.19412" lon="-1.51299">
<ele>111</ele>
<time>2019-10-11T02:00:03Z</time></trkpt>
<trkpt lat="52.19362" lon="-1.51367">
<ele>115</ele>
<time>2019-10-11T02:00:16Z</time></trkpt>
<trkpt lat="52.19308" lon="-1.51413">
<ele>118</ele>
<time>2019-10-11T02:00:29Z</time></trkpt>
<trkpt lat="52.19253" lon="-1.51421">
<ele>119</ele>
<time>2019-10-11T02:00:40Z</time></trkpt>
<trkpt lat="52.19151" lon="-1.51414">
<ele>123</ele>
<time>2019-10-11T02:01:00Z</time></trkpt>
<trkpt lat="52.19128" lon="-1.51437">
<ele>123</ele>
<time>2019-10-11T02:01:05Z</time></trkpt>
<trkpt lat="52.19122" lon="-1.51685">
<ele>123</ele>
<time>2019-10-11T02:01:36Z</time></trkpt>
<trkpt lat="52.1911" lon="-1.51791">
<ele>122</ele>
<time>2019-10-11T02:01:49Z</time></trkpt>
<trkpt lat="52.18943" lon="-1.52632">
<ele>119</ele>
<time>2019-10-11T02:03:38Z</time></trkpt>
<trkpt lat="52.18934" lon="-1.53055">
<ele>130</ele>
<time>2019-10-11T02:04:30Z</time></trkpt>
<trkpt lat="52.18965" lon="-1.53578">
<ele>114</ele>
<time>2019-10-11T02:05:34Z</time></trkpt>
<trkpt lat="52.18942" lon="-1.53868">
<ele>112</ele>
<time>2019-10-11T02:06:10Z</time></trkpt>
<trkpt lat="52.18939" lon="-1.54005">
<ele>109</ele>
<time>2019-10-11T02:06:27Z</time></trkpt>
<trkpt lat="52.1895" lon="-1.54189">
<ele>106</ele>
<time>2019-10-11T02:06:50Z</time></trkpt>
<trkpt lat="52.18987" lon="-1.54314">
<ele>107</ele>
<time>2019-10-11T02:07:07Z</time></trkpt>
<trkpt lat="52.19049" lon="-1.54708">
<ele>110</ele>
<time>2019-10-11T02:07:57Z</time></trkpt>
<trkpt lat="52.19052" lon="-1.54892">
<ele>112</ele>
<time>2019-10-11T02:08:19Z</time></trkpt>
<trkpt lat="52.19062" lon="-1.55001">
<ele>111</ele>
<time>2019-10-11T02:08:33Z</time></trkpt>
<trkpt lat="52.19062" lon="-1.55179">
<ele>109</ele>
<time>2019-10-11T02:08:55Z</time></trkpt>
<trkpt lat="52.19073" lon="-1.5529">
<ele>109</ele>
<time>2019-10-11T02:09:09Z</time></trkpt>
<trkpt lat="52.19062" lon="-1.55422">
<ele>107</ele>
<time>2019-10-11T02:09:25Z</time></trkpt>
<trkpt lat="52.19008" lon="-1.55836">
<ele>96</ele>
<time>2019-10-11T02:10:17Z</time></trkpt>
<trkpt lat="52.18997" lon="-1.55977">
<ele>93</ele>
<time>2019-10-11T02:10:34Z</time></trkpt>
<trkpt lat="52.19016" lon="-1.56206">
<ele>90</ele>
<time>2019-10-11T02:11:03Z</time></trkpt>
<trkpt lat="52.19006" lon="-1.56427">
<ele>85</ele>
<time>2019-10-11T02:11:30Z</time></trkpt>
<trkpt lat="52.19022" lon="-1.56639">
<ele>78</ele>
<time>2019-10-11T02:11:56Z</time></trkpt>
<trkpt lat="52.19044" lon="-1.56779">
<ele>72</ele>
<time>2019-10-11T02:12:14Z</time></trkpt>
<trkpt lat="52.19047" lon="-1.56865">
<ele>70</ele>
<time>2019-10-11T02:12:25Z</time></trkpt>
<trkpt lat="52.19054" lon="-1.56893">
<ele>70</ele>
<time>2019-10-11T02:12:28Z</time></trkpt>
<trkpt lat="52.19097" lon="-1.56973">
<ele>67</ele>
<time>2019-10-11T02:12:41Z</time></trkpt>
<trkpt lat="52.19112" lon="-1.57022">
<ele>63</ele>
<time>2019-10-11T02:12:48Z</time></trkpt>
<trkpt lat="52.1918" lon="-1.5733">
<ele>55</ele>
<time>2019-10-11T02:13:28Z</time></trkpt>
<trkpt lat="52.19208" lon="-1.57518">
<ele>55</ele>
<time>2019-10-11T02:13:52Z</time></trkpt>
<trkpt lat="52.19181" lon="-1.57941">
<ele>52</ele>
<time>2019-10-11T02:14:44Z</time></trkpt>
<trkpt lat="52.19212" lon="-1.58283">
<ele>51</ele>
<time>2019-10-11T02:15:27Z</time></trkpt>
<trkpt lat="52.1918" lon="-1.58371">
<ele>51</ele>
<time>2019-10-11T02:15:39Z</time></trkpt>
<trkpt lat="52.19154" lon="-1.58512">
<ele>51</ele>
<time>2019-10-11T02:15:57Z</time></trkpt>
<trkpt lat="52.19125" lon="-1.58599">
<ele>52</ele>
<time>2019-10-11T02:16:10Z</time></trkpt>
<trkpt lat="52.19171" lon="-1.58644">
<ele>52</ele>
<time>2019-10-11T02:16:20Z</time></trkpt>
<trkpt lat="52.19253" lon="-1.58698">
<ele>53</ele>
<time>2019-10-11T02:16:38Z</time></trkpt>
<trkpt lat="52.19356" lon="-1.58721">
<ele>52</ele>
<time>2019-10-11T02:16:59Z</time></trkpt>
<trkpt lat="52.19384" lon="-1.58745">
<ele>52</ele>
<time>2019-10-11T02:17:05Z</time></trkpt>
<trkpt lat="52.19484" lon="-1.58884">
<ele>52</ele>
<time>2019-10-11T02:17:32Z</time></trkpt>
<trkpt lat="52.19656" lon="-1.59174">
<ele>49</ele>
<time>2019-10-11T02:18:21Z</time></trkpt>
<trkpt lat="52.1964" lon="-1.59243">
<ele>50</ele>
<time>2019-10-11T02:18:30Z</time></trkpt>
<trkpt lat="52.19654" lon="-1.59275">
<ele>50</ele>
<time>2019-10-11T02:18:35Z</time></trkpt>
<trkpt lat="52.19716" lon="-1.5937">
<ele>50</ele>
<time>2019-10-11T02:18:52Z</time></trkpt>
<trkpt lat="52.19751" lon="-1.59335">
<ele>49</ele>
<time>2019-10-11T02:19:00Z</time></trkpt>
<trkpt lat="52.19805" lon="-1.59416">
<ele>51</ele>
<time>2019-10-11T02:19:15Z</time></trkpt>
<trkpt lat="52.19933" lon="-1.59761">
<ele>49</ele>
<time>2019-10-11T02:20:05Z</time></trkpt>
<trkpt lat="52.19951" lon="-1.59856">
<ele>47</ele>
<time>2019-10-11T02:20:17Z</time></trkpt>
<trkpt lat="52.19941" lon="-1.59874">
<ele>47</ele>
<time>2019-10-11T02:20:20Z</time></trkpt>
<trkpt lat="52.19944" lon="-1.59896">
<ele>47</ele>
<time>2019-10-11T02:20:23Z</time></trkpt>
<trkpt lat="52.19955" lon="-1.59906">
<ele>47</ele>
<time>2019-10-11T02:20:25Z</time></trkpt>
<trkpt lat="52.19963" lon="-1.59904">
<ele>47</ele>
<time>2019-10-11T02:20:27Z</time></trkpt>
<trkpt lat="52.20101" lon="-1.60279">
<ele>47</ele>
<time>2019-10-11T02:21:20Z</time></trkpt>
<trkpt lat="52.20347" lon="-1.61032">
<ele>46</ele>
<time>2019-10-11T02:23:05Z</time></trkpt>
<trkpt lat="52.20384" lon="-1.61134">
<ele>45</ele>
<time>2019-10-11T02:23:20Z</time></trkpt>
<trkpt lat="52.20413" lon="-1.6119">
<ele>46</ele>
<time>2019-10-11T02:23:29Z</time></trkpt>
<trkpt lat="52.20487" lon="-1.61284">
<ele>48</ele>
<time>2019-10-11T02:23:48Z</time></trkpt>
<trkpt lat="52.20538" lon="-1.6137">
<ele>48</ele>
<time>2019-10-11T02:24:02Z</time></trkpt>
<trkpt lat="52.20586" lon="-1.61538">
<ele>47</ele>
<time>2019-10-11T02:24:25Z</time></trkpt>
<trkpt lat="52.20621" lon="-1.61695">
<ele>48</ele>
<time>2019-10-11T02:24:45Z</time></trkpt>
<trkpt lat="52.2068" lon="-1.61657">
<ele>48</ele>
<time>2019-10-11T02:24:58Z</time></trkpt>
<trkpt lat="52.20837" lon="-1.61485">
<ele>48</ele>
<time>2019-10-11T02:25:36Z</time></trkpt>
<trkpt lat="52.2092" lon="-1.61605">
<ele>45</ele>
<time>2019-10-11T02:25:58Z</time></trkpt>
<trkpt lat="52.20952" lon="-1.61771">
<ele>45</ele>
<time>2019-10-11T02:26:20Z</time></trkpt>
<trkpt lat="52.21001" lon="-1.61961">
<ele>43</ele>
<time>2019-10-11T02:26:45Z</time></trkpt>
<trkpt lat="52.2102" lon="-1.61999">
<ele>44</ele>
<time>2019-10-11T02:26:51Z</time></trkpt>
<trkpt lat="52.21148" lon="-1.62149">
<ele>44</ele>
<time>2019-10-11T02:27:23Z</time></trkpt>
<trkpt lat="52.21177" lon="-1.62207">
<ele>43</ele>
<time>2019-10-11T02:27:32Z</time></trkpt>
<trkpt lat="52.21213" lon="-1.62326">
<ele>41</ele>
<time>2019-10-11T02:27:48Z</time></trkpt>
<trkpt lat="52.21214" lon="-1.62379">
<ele>40</ele>
<time>2019-10-11T02:27:55Z</time></trkpt>
<trkpt lat="52.2119" lon="-1.62595">
<ele>45</ele>
<time>2019-10-11T02:28:22Z</time></trkpt>
<trkpt lat="52.21178" lon="-1.62631">
<ele>45</ele>
<time>2019-10-11T02:28:27Z</time></trkpt>
<trkpt lat="52.21134" lon="-1.62671">
<ele>46</ele>
<time>2019-10-11T02:28:37Z</time></trkpt>
<trkpt lat="52.2112" lon="-1.62703">
<ele>46</ele>
<time>2019-10-11T02:28:41Z</time></trkpt>
<trkpt lat="52.21108" lon="-1.62788">
<ele>45</ele>
<time>2019-10-11T02:28:52Z</time></trkpt>
<trkpt lat="52.21112" lon="-1.62847">
<ele>45</ele>
<time>2019-10-11T02:28:59Z</time></trkpt>
<trkpt lat="52.21134" lon="-1.6294">
<ele>44</ele>
<time>2019-10-11T02:29:12Z</time></trkpt>
<trkpt lat="52.21171" lon="-1.63035">
<ele>44</ele>
<time>2019-10-11T02:29:26Z</time></trkpt>
<trkpt lat="52.21214" lon="-1.63202">
<ele>44</ele>
<time>2019-10-11T02:29:48Z</time></trkpt>
<trkpt lat="52.21325" lon="-1.63531">
<ele>46</ele>
<time>2019-10-11T02:30:34Z</time></trkpt>
<trkpt lat="52.21405" lon="-1.64028">
<ele>44</ele>
<time>2019-10-11T02:31:37Z</time></trkpt>
<trkpt lat="52.21419" lon="-1.64476">
<ele>44</ele>
<time>2019-10-11T02:32:32Z</time></trkpt>
<trkpt lat="52.21433" lon="-1.64672">
<ele>43</ele>
<time>2019-10-11T02:32:56Z</time></trkpt>
<trkpt lat="52.21449" lon="-1.6476">
<ele>44</ele>
<time>2019-10-11T02:33:08Z</time></trkpt>
<trkpt lat="52.21455" lon="-1.65001">
<ele>44</ele>
<time>2019-10-11T02:33:37Z</time></trkpt>
<trkpt lat="52.21475" lon="-1.65195">
<ele>45</ele>
<time>2019-10-11T02:34:01Z</time></trkpt>
<trkpt lat="52.21471" lon="-1.65271">
<ele>45</ele>
<time>2019-10-11T02:34:11Z</time></trkpt>
<trkpt lat="52.21461" lon="-1.65314">
<ele>44</ele>
<time>2019-10-11T02:34:16Z</time></trkpt>
<trkpt lat="52.2147" lon="-1.65379">
<ele>44</ele>
<time>2019-10-11T02:34:25Z</time></trkpt>
<trkpt lat="52.21493" lon="-1.65426">
<ele>46</ele>
<time>2019-10-11T02:34:32Z</time></trkpt>
<trkpt lat="52.21608" lon="-1.65554">
<ele>52</ele>
<time>2019-10-11T02:35:00Z</time></trkpt>
<trkpt lat="52.21646" lon="-1.65615">
<ele>54</ele>
<time>2019-10-11T02:35:10Z</time></trkpt>
<trkpt lat="52.21681" lon="-1.66102">
<ele>61</ele>
<time>2019-10-11T02:36:11Z</time></trkpt>
<trkpt lat="52.21692" lon="-1.6613">
<ele>60</ele>
<time>2019-10-11T02:36:15Z</time></trkpt>
<trkpt lat="52.21783" lon="-1.6621">
<ele>60</ele>
<time>2019-10-11T02:36:35Z</time></trkpt>
<trkpt lat="52.21797" lon="-1.66239">
<ele>60</ele>
<time>2019-10-11T02:36:40Z</time></trkpt>
<trkpt lat="52.21792" lon="-1.66475">
<ele>55</ele>
<time>2019-10-11T02:37:09Z</time></trkpt>
<trkpt lat="52.21822" lon="-1.66783">
<ele>48</ele>
<time>2019-10-11T02:37:47Z</time></trkpt>
<trkpt lat="52.21814" lon="-1.66889">
<ele>50</ele>
<time>2019-10-11T02:38:00Z</time></trkpt>
<trkpt lat="52.21775" lon="-1.67125">
<ele>60</ele>
<time>2019-10-11T02:38:30Z</time></trkpt>
<trkpt lat="52.21773" lon="-1.6722">
<ele>59</ele>
<time>2019-10-11T02:38:42Z</time></trkpt>
<trkpt lat="52.21779" lon="-1.67284">
<ele>59</ele>
<time>2019-10-11T02:38:50Z</time></trkpt>
<trkpt lat="52.21785" lon="-1.67292">
<ele>59</ele>
<time>2019-10-11T02:38:52Z</time></trkpt>
<trkpt lat="52.21675" lon="-1.67415">
<ele>54</ele>
<time>2019-10-11T02:39:18Z</time></trkpt>
<trkpt lat="52.21525" lon="-1.6753">
<ele>54</ele>
<time>2019-10-11T02:39:51Z</time></trkpt>
<trkpt lat="52.21336" lon="-1.67766">
<ele>57</ele>
<time>2019-10-11T02:40:39Z</time></trkpt>
<trkpt lat="52.21077" lon="-1.67972">
<ele>43</ele>
<time>2019-10-11T02:41:37Z</time></trkpt>
<trkpt lat="52.2115" lon="-1.6813">
<ele>48</ele>
<time>2019-10-11T02:42:01Z</time></trkpt>
<trkpt lat="52.21218" lon="-1.68394">
<ele>61</ele>
<time>2019-10-11T02:42:36Z</time></trkpt>
<trkpt lat="52.21246" lon="-1.68462">
<ele>64</ele>
<time>2019-10-11T02:42:46Z</time></trkpt>
<trkpt lat="52.21285" lon="-1.68516">
<ele>64</ele>
<time>2019-10-11T02:42:57Z</time></trkpt>
<trkpt lat="52.21415" lon="-1.68608">
<ele>63</ele>
<time>2019-10-11T02:43:25Z</time></trkpt>
<trkpt lat="52.21483" lon="-1.6863">
<ele>66</ele>
<time>2019-10-11T02:43:39Z</time></trkpt>
<trkpt lat="52.21594" lon="-1.68638">
<ele>69</ele>
<time>2019-10-11T02:44:01Z</time></trkpt>
<trkpt lat="52.21651" lon="-1.68652">
<ele>69</ele>
<time>2019-10-11T02:44:13Z</time></trkpt>
<trkpt lat="52.21923" lon="-1.68757">
<ele>73</ele>
<time>2019-10-11T02:45:09Z</time></trkpt>
<trkpt lat="52.22066" lon="-1.68784">
<ele>72</ele>
<time>2019-10-11T02:45:38Z</time></trkpt>
<trkpt lat="52.22107" lon="-1.68799">
<ele>72</ele>
<time>2019-10-11T02:45:46Z</time></trkpt>
<trkpt lat="52.2216" lon="-1.68836">
<ele>72</ele>
<time>2019-10-11T02:45:58Z</time></trkpt>
<trkpt lat="52.22246" lon="-1.68915">
<ele>69</ele>
<time>2019-10-11T02:46:17Z</time></trkpt>
<trkpt lat="52.22325" lon="-1.68914">
<ele>72</ele>
<time>2019-10-11T02:46:33Z</time></trkpt>
<trkpt lat="52.22458" lon="-1.68933">
<ele>79</ele>
<time>2019-10-11T02:47:00Z</time></trkpt>
<trkpt lat="52.22552" lon="-1.68932">
<ele>82</ele>
<time>2019-10-11T02:47:19Z</time></trkpt>
<trkpt lat="52.22925" lon="-1.68875">
<ele>88</ele>
<time>2019-10-11T02:48:34Z</time></trkpt>
<trkpt lat="52.22957" lon="-1.68866">
<ele>89</ele>
<time>2019-10-11T02:48:40Z</time></trkpt>
<trkpt lat="52.23003" lon="-1.68841">
<ele>90</ele>
<time>2019-10-11T02:48:50Z</time></trkpt>
<trkpt lat="52.23162" lon="-1.68703">
<ele>102</ele>
<time>2019-10-11T02:49:26Z</time></trkpt>
<trkpt lat="52.23204" lon="-1.68653">
<ele>101</ele>
<time>2019-10-11T02:49:37Z</time></trkpt>
<trkpt lat="52.23217" lon="-1.68603">
<ele>101</ele>
<time>2019-10-11T02:49:43Z</time></trkpt>
<trkpt lat="52.23215" lon="-1.68507">
<ele>102</ele>
<time>2019-10-11T02:49:55Z</time></trkpt>
<trkpt lat="52.23224" lon="-1.68425">
<ele>105</ele>
<time>2019-10-11T02:50:05Z</time></trkpt>
<trkpt lat="52.23267" lon="-1.68473">
<ele>105</ele>
<time>2019-10-11T02:50:16Z</time></trkpt>
<trkpt lat="52.23416" lon="-1.68599">
<ele>96</ele>
<time>2019-10-11T02:50:49Z</time></trkpt>
<trkpt lat="52.23493" lon="-1.68684">
<ele>92</ele>
<time>2019-10-11T02:51:08Z</time></trkpt>
<trkpt lat="52.23602" lon="-1.68824">
<ele>88</ele>
<time>2019-10-11T02:51:36Z</time></trkpt>
<trkpt lat="52.23696" lon="-1.68976">
<ele>86</ele>
<time>2019-10-11T02:52:02Z</time></trkpt>
<trkpt lat="52.23777" lon="-1.69085">
<ele>91</ele>
<time>2019-10-11T02:52:23Z</time></trkpt>
<trkpt lat="52.23806" lon="-1.69225">
<ele>93</ele>
<time>2019-10-11T02:52:41Z</time></trkpt>
<trkpt lat="52.23842" lon="-1.69868">
<ele>96</ele>
<time>2019-10-11T02:54:01Z</time></trkpt>
<trkpt lat="52.23864" lon="-1.70038">
<ele>97</ele>
<time>2019-10-11T02:54:22Z</time></trkpt>
<trkpt lat="52.23874" lon="-1.70191">
<ele>96</ele>
<time>2019-10-11T02:54:41Z</time></trkpt>
<trkpt lat="52.2398" lon="-1.70539">
<ele>100</ele>
<time>2019-10-11T02:55:28Z</time></trkpt>
<trkpt lat="52.24017" lon="-1.70613">
<ele>102</ele>
<time>2019-10-11T02:55:40Z</time></trkpt>
<trkpt lat="52.24072" lon="-1.7069">
<ele>107</ele>
<time>2019-10-11T02:55:55Z</time></trkpt>
<trkpt lat="52.24082" lon="-1.70723">
<ele>108</ele>
<time>2019-10-11T02:55:59Z</time></trkpt>
<trkpt lat="52.2408" lon="-1.7101">
<ele>113</ele>
<time>2019-10-11T02:56:34Z</time></trkpt>
<trkpt lat="52.24055" lon="-1.71411">
<ele>116</ele>
<time>2019-10-11T02:57:24Z</time></trkpt>
<trkpt lat="52.24063" lon="-1.7151">
<ele>113</ele>
<time>2019-10-11T02:57:36Z</time></trkpt>
<trkpt lat="52.24155" lon="-1.7205">
<ele>116</ele>
<time>2019-10-11T02:58:45Z</time></trkpt>
<trkpt lat="52.24236" lon="-1.7226">
<ele>112</ele>
<time>2019-10-11T02:59:15Z</time></trkpt>
<trkpt lat="52.24278" lon="-1.72393">
<ele>109</ele>
<time>2019-10-11T02:59:34Z</time></trkpt>
<trkpt lat="52.24302" lon="-1.72501">
<ele>106</ele>
<time>2019-10-11T02:59:48Z</time></trkpt>
<trkpt lat="52.2435" lon="-1.72807">
<ele>101</ele>
<time>2019-10-11T03:00:27Z</time></trkpt>
<trkpt lat="52.24371" lon="-1.73003">
<ele>99</ele>
<time>2019-10-11T03:00:51Z</time></trkpt>
<trkpt lat="52.24369" lon="-1.73204">
<ele>98</ele>
<time>2019-10-11T03:01:16Z</time></trkpt>
<trkpt lat="52.24303" lon="-1.73534">
<ele>98</ele>
<time>2019-10-11T03:01:58Z</time></trkpt>
<trkpt lat="52.243" lon="-1.73576">
<ele>97</ele>
<time>2019-10-11T03:02:03Z</time></trkpt>
<trkpt lat="52.24372" lon="-1.74268">
<ele>76</ele>
<time>2019-10-11T03:03:30Z</time></trkpt>
<trkpt lat="52.24382" lon="-1.74327">
<ele>75</ele>
<time>2019-10-11T03:03:37Z</time></trkpt>
<trkpt lat="52.24433" lon="-1.74495">
<ele>74</ele>
<time>2019-10-11T03:04:00Z</time></trkpt>
<trkpt lat="52.24478" lon="-1.74693">
<ele>72</ele>
<time>2019-10-11T03:04:26Z</time></trkpt>
<trkpt lat="52.24485" lon="-1.74753">
<ele>72</ele>
<time>2019-10-11T03:04:34Z</time></trkpt>
<trkpt lat="52.24473" lon="-1.74806">
<ele>72</ele>
<time>2019-10-11T03:04:40Z</time></trkpt>
<trkpt lat="52.24543" lon="-1.74859">
<ele>71</ele>
<time>2019-10-11T03:04:56Z</time></trkpt>
<trkpt lat="52.24603" lon="-1.7492">
<ele>71</ele>
<time>2019-10-11T03:05:10Z</time></trkpt>
<trkpt lat="52.24702" lon="-1.75074">
<ele>68</ele>
<time>2019-10-11T03:05:37Z</time></trkpt>
<trkpt lat="52.24689" lon="-1.75114">
<ele>68</ele>
<time>2019-10-11T03:05:43Z</time></trkpt>
<trkpt lat="52.24653" lon="-1.75311">
<ele>69</ele>
<time>2019-10-11T03:06:08Z</time></trkpt>
<trkpt lat="52.24632" lon="-1.75612">
<ele>66</ele>
<time>2019-10-11T03:06:45Z</time></trkpt>
<trkpt lat="52.24618" lon="-1.75708">
<ele>66</ele>
<time>2019-10-11T03:06:58Z</time></trkpt>
<trkpt lat="52.24531" lon="-1.76123">
<ele>63</ele>
<time>2019-10-11T03:07:51Z</time></trkpt>
<trkpt lat="52.24538" lon="-1.76172">
<ele>64</ele>
<time>2019-10-11T03:07:57Z</time></trkpt>
<trkpt lat="52.2457" lon="-1.76255">
<ele>64</ele>
<time>2019-10-11T03:08:10Z</time></trkpt>
<trkpt lat="52.24602" lon="-1.76406">
<ele>67</ele>
<time>2019-10-11T03:08:29Z</time></trkpt>
<trkpt lat="52.24568" lon="-1.7668">
<ele>62</ele>
<time>2019-10-11T03:09:03Z</time></trkpt>
<trkpt lat="52.24568" lon="-1.76744">
<ele>62</ele>
<time>2019-10-11T03:09:11Z</time></trkpt>
<trkpt lat="52.24592" lon="-1.76887">
<ele>64</ele>
<time>2019-10-11T03:09:29Z</time></trkpt>
<trkpt lat="52.24586" lon="-1.77003">
<ele>67</ele>
<time>2019-10-11T03:09:44Z</time></trkpt>
<trkpt lat="52.2459" lon="-1.77139">
<ele>71</ele>
<time>2019-10-11T03:10:00Z</time></trkpt>
<trkpt lat="52.24569" lon="-1.77316">
<ele>76</ele>
<time>2019-10-11T03:10:23Z</time></trkpt>
<trkpt lat="52.24565" lon="-1.77739">
<ele>70</ele>
<time>2019-10-11T03:11:14Z</time></trkpt>
<trkpt lat="52.24553" lon="-1.77909">
<ele>67</ele>
<time>2019-10-11T03:11:35Z</time></trkpt>
<trkpt lat="52.24538" lon="-1.77984">
<ele>66</ele>
<time>2019-10-11T03:11:45Z</time></trkpt>
<trkpt lat="52.24472" lon="-1.78142">
<ele>70</ele>
<time>2019-10-11T03:12:09Z</time></trkpt>
<trkpt lat="52.24379" lon="-1.78441">
<ele>60</ele>
<time>2019-10-11T03:12:50Z</time></trkpt>
<trkpt lat="52.24378" lon="-1.78492">
<ele>60</ele>
<time>2019-10-11T03:12:56Z</time></trkpt>
<trkpt lat="52.24419" lon="-1.78563">
<ele>60</ele>
<time>2019-10-11T03:13:08Z</time></trkpt>
<trkpt lat="52.24497" lon="-1.78662">
<ele>60</ele>
<time>2019-10-11T03:13:28Z</time></trkpt>
<trkpt lat="52.24595" lon="-1.78837">
<ele>58</ele>
<time>2019-10-11T03:13:57Z</time></trkpt>
<trkpt lat="52.247" lon="-1.79176">
<ele>57</ele>
<time>2019-10-11T03:14:44Z</time></trkpt>
<trkpt lat="52.24756" lon="-1.79304">
<ele>54</ele>
<time>2019-10-11T03:15:03Z</time></trkpt>
<trkpt lat="52.24859" lon="-1.7944">
<ele>55</ele>
<time>2019-10-11T03:15:29Z</time></trkpt>
<trkpt lat="52.24916" lon="-1.79471">
<ele>56</ele>
<time>2019-10-11T03:15:41Z</time></trkpt>
<trkpt lat="52.24922" lon="-1.79486">
<ele>56</ele>
<time>2019-10-11T03:15:44Z</time></trkpt>
<trkpt lat="52.24937" lon="-1.79466">
<ele>55</ele>
<time>2019-10-11T03:15:47Z</time></trkpt>
<trkpt lat="52.24955" lon="-1.79467">
<ele>55</ele>
<time>2019-10-11T03:15:51Z</time></trkpt>
<trkpt lat="52.25055" lon="-1.79533">
<ele>56</ele>
<time>2019-10-11T03:16:13Z</time></trkpt>
<trkpt lat="52.25101" lon="-1.79604">
<ele>56</ele>
<time>2019-10-11T03:16:25Z</time></trkpt>
<trkpt lat="52.25141" lon="-1.7968">
<ele>58</ele>
<time>2019-10-11T03:16:38Z</time></trkpt>
<trkpt lat="52.25151" lon="-1.79716">
<ele>58</ele>
<time>2019-10-11T03:16:43Z</time></trkpt>
<trkpt lat="52.25161" lon="-1.79724">
<ele>57</ele>
<time>2019-10-11T03:16:45Z</time></trkpt>
<trkpt lat="52.25157" lon="-1.79774">
<ele>57</ele>
<time>2019-10-11T03:16:51Z</time></trkpt>
<trkpt lat="52.25165" lon="-1.79816">
<ele>58</ele>
<time>2019-10-11T03:16:56Z</time></trkpt>
<trkpt lat="52.25281" lon="-1.80127">
<ele>59</ele>
<time>2019-10-11T03:17:41Z</time></trkpt>
<trkpt lat="52.25296" lon="-1.8019">
<ele>59</ele>
<time>2019-10-11T03:17:49Z</time></trkpt>
<trkpt lat="52.25315" lon="-1.80356">
<ele>60</ele>
<time>2019-10-11T03:18:10Z</time></trkpt>
<trkpt lat="52.25339" lon="-1.8047">
<ele>63</ele>
<time>2019-10-11T03:18:25Z</time></trkpt>
<trkpt lat="52.2536" lon="-1.80533">
<ele>64</ele>
<time>2019-10-11T03:18:34Z</time></trkpt>
<trkpt lat="52.25423" lon="-1.8066">
<ele>66</ele>
<time>2019-10-11T03:18:54Z</time></trkpt>
<trkpt lat="52.25455" lon="-1.80752">
<ele>67</ele>
<time>2019-10-11T03:19:07Z</time></trkpt>
<trkpt lat="52.25508" lon="-1.81048">
<ele>69</ele>
<time>2019-10-11T03:19:44Z</time></trkpt>
<trkpt lat="52.25536" lon="-1.81138">
<ele>69</ele>
<time>2019-10-11T03:19:57Z</time></trkpt>
<trkpt lat="52.25566" lon="-1.81187">
<ele>69</ele>
<time>2019-10-11T03:20:05Z</time></trkpt>
<trkpt lat="52.25589" lon="-1.81208">
<ele>69</ele>
<time>2019-10-11T03:20:11Z</time></trkpt>
<trkpt lat="52.2562" lon="-1.81202">
<ele>69</ele>
<time>2019-10-11T03:20:17Z</time></trkpt>
<trkpt lat="52.25673" lon="-1.81165">
<ele>69</ele>
<time>2019-10-11T03:20:28Z</time></trkpt>
<trkpt lat="52.25707" lon="-1.81173">
<ele>68</ele>
<time>2019-10-11T03:20:35Z</time></trkpt>
<trkpt lat="52.25723" lon="-1.81184">
<ele>68</ele>
<time>2019-10-11T03:20:39Z</time></trkpt>
<trkpt lat="52.25792" lon="-1.81272">
<ele>70</ele>
<time>2019-10-11T03:20:56Z</time></trkpt>
<trkpt lat="52.25884" lon="-1.81347">
<ele>73</ele>
<time>2019-10-11T03:21:17Z</time></trkpt>
<trkpt lat="52.25958" lon="-1.81428">
<ele>75</ele>
<time>2019-10-11T03:21:35Z</time></trkpt>
<trkpt lat="52.26033" lon="-1.81486">
<ele>75</ele>
<time>2019-10-11T03:21:51Z</time></trkpt>
<trkpt lat="52.26063" lon="-1.81559">
<ele>77</ele>
<time>2019-10-11T03:22:02Z</time></trkpt>
<trkpt lat="52.2612" lon="-1.81565">
<ele>78</ele>
<time>2019-10-11T03:22:14Z</time></trkpt>
<trkpt lat="52.26187" lon="-1.81595">
<ele>79</ele>
<time>2019-10-11T03:22:28Z</time></trkpt>
<trkpt lat="52.26287" lon="-1.81722">
<ele>82</ele>
<time>2019-10-11T03:22:53Z</time></trkpt>
<trkpt lat="52.26349" lon="-1.81777">
<ele>83</ele>
<time>2019-10-11T03:23:07Z</time></trkpt>
<trkpt lat="52.26421" lon="-1.81689">
<ele>82</ele>
<time>2019-10-11T03:23:25Z</time></trkpt>
<trkpt lat="52.2644" lon="-1.81678">
<ele>83</ele>
<time>2019-10-11T03:23:29Z</time></trkpt>
<trkpt lat="52.26537" lon="-1.81652">
<ele>91</ele>
<time>2019-10-11T03:23:49Z</time></trkpt>
<trkpt lat="52.26566" lon="-1.81628">
<ele>94</ele>
<time>2019-10-11T03:23:55Z</time></trkpt>
<trkpt lat="52.26706" lon="-1.81421">
<ele>89</ele>
<time>2019-10-11T03:24:33Z</time></trkpt>
<trkpt lat="52.26757" lon="-1.81361">
<ele>89</ele>
<time>2019-10-11T03:24:46Z</time></trkpt>
<trkpt lat="52.26822" lon="-1.8124">
<ele>82</ele>
<time>2019-10-11T03:25:05Z</time></trkpt>
<trkpt lat="52.2687" lon="-1.81207">
<ele>81</ele>
<time>2019-10-11T03:25:16Z</time></trkpt>
<trkpt lat="52.26905" lon="-1.81164">
<ele>82</ele>
<time>2019-10-11T03:25:25Z</time></trkpt>
<trkpt lat="52.27022" lon="-1.81077">
<ele>85</ele>
<time>2019-10-11T03:25:50Z</time></trkpt>
<trkpt lat="52.27059" lon="-1.80994">
<ele>85</ele>
<time>2019-10-11T03:26:03Z</time></trkpt>
<trkpt lat="52.27133" lon="-1.80911">
<ele>91</ele>
<time>2019-10-11T03:26:21Z</time></trkpt>
<trkpt lat="52.2715" lon="-1.80913">
<ele>92</ele>
<time>2019-10-11T03:26:24Z</time></trkpt>
<trkpt lat="52.2731" lon="-1.81135">
<ele>95</ele>
<time>2019-10-11T03:27:06Z</time></trkpt>
<trkpt lat="52.27369" lon="-1.81188">
<ele>99</ele>
<time>2019-10-11T03:27:20Z</time></trkpt>
<trkpt lat="52.27441" lon="-1.81316">
<ele>100</ele>
<time>2019-10-11T03:27:41Z</time></trkpt>
<trkpt lat="52.27489" lon="-1.8134">
<ele>101</ele>
<time>2019-10-11T03:27:51Z</time></trkpt>
<trkpt lat="52.27515" lon="-1.81364">
<ele>101</ele>
<time>2019-10-11T03:27:57Z</time></trkpt>
<trkpt lat="52.27658" lon="-1.81541">
<ele>96</ele>
<time>2019-10-11T03:28:33Z</time></trkpt>
<trkpt lat="52.27752" lon="-1.81635">
<ele>94</ele>
<time>2019-10-11T03:28:55Z</time></trkpt>
<trkpt lat="52.27808" lon="-1.81724">
<ele>94</ele>
<time>2019-10-11T03:29:11Z</time></trkpt>
<trkpt lat="52.27947" lon="-1.82053">
<ele>100</ele>
<time>2019-10-11T03:30:00Z</time></trkpt>
<trkpt lat="52.28012" lon="-1.82161">
<ele>100</ele>
<time>2019-10-11T03:30:19Z</time></trkpt>
<trkpt lat="52.2808" lon="-1.82223">
<ele>99</ele>
<time>2019-10-11T03:30:34Z</time></trkpt>
<trkpt lat="52.28119" lon="-1.82297">
<ele>98</ele>
<time>2019-10-11T03:30:46Z</time></trkpt>
<trkpt lat="52.28191" lon="-1.82509">
<ele>94</ele>
<time>2019-10-11T03:31:16Z</time></trkpt>
<trkpt lat="52.28251" lon="-1.82832">
<ele>100</ele>
<time>2019-10-11T03:31:57Z</time></trkpt>
<trkpt lat="52.28351" lon="-1.83083">
<ele>99</ele>
<time>2019-10-11T03:32:34Z</time></trkpt>
<trkpt lat="52.28391" lon="-1.83034">
<ele>101</ele>
<time>2019-10-11T03:32:44Z</time></trkpt>
<trkpt lat="52.28405" lon="-1.83038">
<ele>101</ele>
<time>2019-10-11T03:32:47Z</time></trkpt>
<trkpt lat="52.28452" lon="-1.83078">
<ele>100</ele>
<time>2019-10-11T03:32:57Z</time></trkpt>
<trkpt lat="52.28463" lon="-1.83082">
<ele>100</ele>
<time>2019-10-11T03:33:00Z</time></trkpt>
<trkpt lat="52.28473" lon="-1.83076">
<ele>100</ele>
<time>2019-10-11T03:33:02Z</time></trkpt>
<trkpt lat="52.28541" lon="-1.82884">
<ele>101</ele>
<time>2019-10-11T03:33:29Z</time></trkpt>
<trkpt lat="52.28566" lon="-1.82839">
<ele>100</ele>
<time>2019-10-11T03:33:37Z</time></trkpt>
<trkpt lat="52.28633" lon="-1.82841">
<ele>99</ele>
<time>2019-10-11T03:33:50Z</time></trkpt>
<trkpt lat="52.28702" lon="-1.82833">
<ele>99</ele>
<time>2019-10-11T03:34:04Z</time></trkpt>
<trkpt lat="52.28771" lon="-1.82774">
<ele>99</ele>
<time>2019-10-11T03:34:19Z</time></trkpt>
<trkpt lat="52.28822" lon="-1.82763">
<ele>98</ele>
<time>2019-10-11T03:34:30Z</time></trkpt>
<trkpt lat="52.28856" lon="-1.8273">
<ele>98</ele>
<time>2019-10-11T03:34:38Z</time></trkpt>
<trkpt lat="52.28919" lon="-1.82762">
<ele>100</ele>
<time>2019-10-11T03:34:51Z</time></trkpt>
<trkpt lat="52.28954" lon="-1.8279">
<ele>102</ele>
<time>2019-10-11T03:34:59Z</time></trkpt>
<trkpt lat="52.28968" lon="-1.82794">
<ele>102</ele>
<time>2019-10-11T03:35:02Z</time></trkpt>
<trkpt lat="52.28989" lon="-1.82785">
<ele>102</ele>
<time>2019-10-11T03:35:06Z</time></trkpt>
<trkpt lat="52.29012" lon="-1.82752">
<ele>101</ele>
<time>2019-10-11T03:35:12Z</time></trkpt>
<trkpt lat="52.29152" lon="-1.82415">
<ele>96</ele>
<time>2019-10-11T03:36:02Z</time></trkpt>
<trkpt lat="52.29166" lon="-1.82402">
<ele>96</ele>
<time>2019-10-11T03:36:05Z</time></trkpt>
<trkpt lat="52.29231" lon="-1.82374">
<ele>94</ele>
<time>2019-10-11T03:36:19Z</time></trkpt>
<trkpt lat="52.29299" lon="-1.82614">
<ele>98</ele>
<time>2019-10-11T03:36:51Z</time></trkpt>
<trkpt lat="52.29339" lon="-1.82692">
<ele>99</ele>
<time>2019-10-11T03:37:04Z</time></trkpt>
<trkpt lat="52.29376" lon="-1.82734">
<ele>100</ele>
<time>2019-10-11T03:37:13Z</time></trkpt>
<trkpt lat="52.29425" lon="-1.8277">
<ele>100</ele>
<time>2019-10-11T03:37:23Z</time></trkpt>
<trkpt lat="52.29471" lon="-1.82783">
<ele>100</ele>
<time>2019-10-11T03:37:33Z</time></trkpt>
<trkpt lat="52.29682" lon="-1.82772">
<ele>100</ele>
<time>2019-10-11T03:38:15Z</time></trkpt>
<trkpt lat="52.29735" lon="-1.82774">
<ele>101</ele>
<time>2019-10-11T03:38:26Z</time></trkpt>
<trkpt lat="52.29754" lon="-1.82782">
<ele>101</ele>
<time>2019-10-11T03:38:30Z</time></trkpt>
<trkpt lat="52.29809" lon="-1.82823">
<ele>101</ele>
<time>2019-10-11T03:38:42Z</time></trkpt>
<trkpt lat="52.29835" lon="-1.82858">
<ele>101</ele>
<time>2019-10-11T03:38:48Z</time></trkpt>
<trkpt lat="52.29859" lon="-1.82896">
<ele>103</ele>
<time>2019-10-11T03:38:55Z</time></trkpt>
<trkpt lat="52.2992" lon="-1.83029">
<ele>106</ele>
<time>2019-10-11T03:39:15Z</time></trkpt>
<trkpt lat="52.29945" lon="-1.8299">
<ele>108</ele>
<time>2019-10-11T03:39:22Z</time></trkpt>
<trkpt lat="52.30001" lon="-1.82868">
<ele>112</ele>
<time>2019-10-11T03:39:41Z</time></trkpt>
<trkpt lat="52.30014" lon="-1.82736">
<ele>107</ele>
<time>2019-10-11T03:39:57Z</time></trkpt>
<trkpt lat="52.30029" lon="-1.82692">
<ele>108</ele>
<time>2019-10-11T03:40:04Z</time></trkpt>
<trkpt lat="52.3007" lon="-1.82647">
<ele>108</ele>
<time>2019-10-11T03:40:14Z</time></trkpt>
<trkpt lat="52.30098" lon="-1.82627">
<ele>108</ele>
<time>2019-10-11T03:40:20Z</time></trkpt>
<trkpt lat="52.30183" lon="-1.82591">
<ele>108</ele>
<time>2019-10-11T03:40:37Z</time></trkpt>
<trkpt lat="52.30271" lon="-1.82565">
<ele>110</ele>
<time>2019-10-11T03:40:55Z</time></trkpt>
<trkpt lat="52.30302" lon="-1.82544">
<ele>111</ele>
<time>2019-10-11T03:41:02Z</time></trkpt>
<trkpt lat="52.30316" lon="-1.82518">
<ele>111</ele>
<time>2019-10-11T03:41:06Z</time></trkpt>
<trkpt lat="52.3032" lon="-1.82466">
<ele>111</ele>
<time>2019-10-11T03:41:13Z</time></trkpt>
<trkpt lat="52.30305" lon="-1.82384">
<ele>110</ele>
<time>2019-10-11T03:41:23Z</time></trkpt>
<trkpt lat="52.30302" lon="-1.82264">
<ele>106</ele>
<time>2019-10-11T03:41:38Z</time></trkpt>
<trkpt lat="52.30307" lon="-1.82224">
<ele>105</ele>
<time>2019-10-11T03:41:43Z</time></trkpt>
<trkpt lat="52.3032" lon="-1.82189">
<ele>105</ele>
<time>2019-10-11T03:41:48Z</time></trkpt>
<trkpt lat="52.30344" lon="-1.82203">
<ele>106</ele>
<time>2019-10-11T03:41:53Z</time></trkpt>
<trkpt lat="52.30416" lon="-1.82167">
<ele>108</ele>
<time>2019-10-11T03:42:08Z</time></trkpt>
<trkpt lat="52.30493" lon="-1.82076">
<ele>109</ele>
<time>2019-10-11T03:42:27Z</time></trkpt>
<trkpt lat="52.30626" lon="-1.81944">
<ele>112</ele>
<time>2019-10-11T03:42:58Z</time></trkpt>
<trkpt lat="52.30632" lon="-1.81925">
<ele>112</ele>
<time>2019-10-11T03:43:01Z</time></trkpt>
<trkpt lat="52.3064" lon="-1.81943">
<ele>112</ele>
<time>2019-10-11T03:43:04Z</time></trkpt>
<trkpt lat="52.30626" lon="-1.81944">
<ele>112</ele>
<time>2019-10-11T03:43:06Z</time></trkpt>
<trkpt lat="52.30493" lon="-1.82076">
<ele>109</ele>
<time>2019-10-11T03:43:37Z</time></trkpt>
<trkpt lat="52.30416" lon="-1.82167">
<ele>108</ele>
<time>2019-10-11T03:43:57Z</time></trkpt>
<trkpt lat="52.30344" lon="-1.82203">
<ele>106</ele>
<time>2019-10-11T03:44:12Z</time></trkpt>
<trkpt lat="52.3032" lon="-1.82189">
<ele>105</ele>
<time>2019-10-11T03:44:17Z</time></trkpt>
<trkpt lat="52.30307" lon="-1.82224">
<ele>105</ele>
<time>2019-10-11T03:44:22Z</time></trkpt>
<trkpt lat="52.30302" lon="-1.82264">
<ele>106</ele>
<time>2019-10-11T03:44:27Z</time></trkpt>
<trkpt lat="52.30305" lon="-1.82384">
<ele>110</ele>
<time>2019-10-11T03:44:41Z</time></trkpt>
<trkpt lat="52.3032" lon="-1.82466">
<ele>111</ele>
<time>2019-10-11T03:44:52Z</time></trkpt>
<trkpt lat="52.30316" lon="-1.82518">
<ele>111</ele>
<time>2019-10-11T03:44:58Z</time></trkpt>
<trkpt lat="52.30289" lon="-1.82555">
<ele>111</ele>
<time>2019-10-11T03:45:05Z</time></trkpt>
<trkpt lat="52.30098" lon="-1.82627">
<ele>108</ele>
<time>2019-10-11T03:45:45Z</time></trkpt>
<trkpt lat="52.30038" lon="-1.82681">
<ele>108</ele>
<time>2019-10-11T03:45:58Z</time></trkpt>
<trkpt lat="52.30024" lon="-1.827">
<ele>108</ele>
<time>2019-10-11T03:46:02Z</time></trkpt>
<trkpt lat="52.30014" lon="-1.82736">
<ele>107</ele>
<time>2019-10-11T03:46:07Z</time></trkpt>
<trkpt lat="52.30005" lon="-1.82855">
<ele>111</ele>
<time>2019-10-11T03:46:22Z</time></trkpt>
<trkpt lat="52.2996" lon="-1.82949">
<ele>110</ele>
<time>2019-10-11T03:46:36Z</time></trkpt>
<trkpt lat="52.30005" lon="-1.82855">
<ele>111</ele>
<time>2019-10-11T03:46:51Z</time></trkpt>
<trkpt lat="52.30014" lon="-1.82736">
<ele>107</ele>
<time>2019-10-11T03:47:06Z</time></trkpt>
<trkpt lat="52.30024" lon="-1.827">
<ele>108</ele>
<time>2019-10-11T03:47:10Z</time></trkpt>
<trkpt lat="52.30038" lon="-1.82681">
<ele>108</ele>
<time>2019-10-11T03:47:14Z</time></trkpt>
<trkpt lat="52.30098" lon="-1.82627">
<ele>108</ele>
<time>2019-10-11T03:47:28Z</time></trkpt>
<trkpt lat="52.30289" lon="-1.82555">
<ele>111</ele>
<time>2019-10-11T03:48:07Z</time></trkpt>
<trkpt lat="52.30316" lon="-1.82518">
<ele>111</ele>
<time>2019-10-11T03:48:14Z</time></trkpt>
<trkpt lat="52.3032" lon="-1.82466">
<ele>111</ele>
<time>2019-10-11T03:48:21Z</time></trkpt>
<trkpt lat="52.30305" lon="-1.82384">
<ele>110</ele>
<time>2019-10-11T03:48:31Z</time></trkpt>
<trkpt lat="52.30302" lon="-1.82264">
<ele>106</ele>
<time>2019-10-11T03:48:46Z</time></trkpt>
<trkpt lat="52.30307" lon="-1.82224">
<ele>105</ele>
<time>2019-10-11T03:48:51Z</time></trkpt>
<trkpt lat="52.3032" lon="-1.82189">
<ele>105</ele>
<time>2019-10-11T03:48:56Z</time></trkpt>
<trkpt lat="52.30344" lon="-1.82203">
<ele>106</ele>
<time>2019-10-11T03:49:01Z</time></trkpt>
<trkpt lat="52.30416" lon="-1.82167">
<ele>108</ele>
<time>2019-10-11T03:49:16Z</time></trkpt>
<trkpt lat="52.30493" lon="-1.82076">
<ele>109</ele>
<time>2019-10-11T03:49:35Z</time></trkpt>
<trkpt lat="52.30626" lon="-1.81944">
<ele>112</ele>
<time>2019-10-11T03:50:06Z</time></trkpt>
<trkpt lat="52.3064" lon="-1.81943">
<ele>112</ele>
<time>2019-10-11T03:50:09Z</time></trkpt>
<trkpt lat="52.30693" lon="-1.82009">
<ele>114</ele>
<time>2019-10-11T03:50:22Z</time></trkpt>
<trkpt lat="52.30766" lon="-1.82073">
<ele>118</ele>
<time>2019-10-11T03:50:39Z</time></trkpt>
<trkpt lat="52.30807" lon="-1.8209">
<ele>119</ele>
<time>2019-10-11T03:50:47Z</time></trkpt>
<trkpt lat="52.30843" lon="-1.821">
<ele>120</ele>
<time>2019-10-11T03:50:55Z</time></trkpt>
<trkpt lat="52.30928" lon="-1.82098">
<ele>124</ele>
<time>2019-10-11T03:51:12Z</time></trkpt>
<trkpt lat="52.30986" lon="-1.82105">
<ele>126</ele>
<time>2019-10-11T03:51:23Z</time></trkpt>
<trkpt lat="52.31035" lon="-1.82116">
<ele>127</ele>
<time>2019-10-11T03:51:33Z</time></trkpt>
<trkpt lat="52.31074" lon="-1.82136">
<ele>128</ele>
<time>2019-10-11T03:51:41Z</time></trkpt>
<trkpt lat="52.31134" lon="-1.82145">
<ele>131</ele>
<time>2019-10-11T03:51:54Z</time></trkpt>
<trkpt lat="52.31143" lon="-1.82138">
<ele>131</ele>
<time>2019-10-11T03:51:56Z</time></trkpt>
<trkpt lat="52.3115" lon="-1.82124">
<ele>132</ele>
<time>2019-10-11T03:51:58Z</time></trkpt>
<trkpt lat="52.31145" lon="-1.82024">
<ele>132</ele>
<time>2019-10-11T03:52:10Z</time></trkpt>
<trkpt lat="52.31106" lon="-1.81702">
<ele>126</ele>
<time>2019-10-11T03:52:50Z</time></trkpt>
<trkpt lat="52.31123" lon="-1.81622">
<ele>123</ele>
<time>2019-10-11T03:53:01Z</time></trkpt>
<trkpt lat="52.31268" lon="-1.81486">
<ele>119</ele>
<time>2019-10-11T03:53:34Z</time></trkpt>
<trkpt lat="52.314" lon="-1.81465">
<ele>121</ele>
<time>2019-10-11T03:54:01Z</time></trkpt>
<trkpt lat="52.31487" lon="-1.81475">
<ele>120</ele>
<time>2019-10-11T03:54:18Z</time></trkpt>
<trkpt lat="52.31691" lon="-1.81523">
<ele>115</ele>
<time>2019-10-11T03:54:59Z</time></trkpt>
<trkpt lat="52.31712" lon="-1.81534">
<ele>114</ele>
<time>2019-10-11T03:55:04Z</time></trkpt>
<trkpt lat="52.31838" lon="-1.81666">
<ele>111</ele>
<time>2019-10-11T03:55:34Z</time></trkpt>
<trkpt lat="52.31907" lon="-1.81711">
<ele>110</ele>
<time>2019-10-11T03:55:49Z</time></trkpt>
<trkpt lat="52.31986" lon="-1.8173">
<ele>108</ele>
<time>2019-10-11T03:56:05Z</time></trkpt>
<trkpt lat="52.32024" lon="-1.81799">
<ele>109</ele>
<time>2019-10-11T03:56:16Z</time></trkpt>
<trkpt lat="52.32065" lon="-1.81817">
<ele>110</ele>
<time>2019-10-11T03:56:25Z</time></trkpt>
<trkpt lat="52.32126" lon="-1.81813">
<ele>112</ele>
<time>2019-10-11T03:56:37Z</time></trkpt>
<trkpt lat="52.32173" lon="-1.81844">
<ele>114</ele>
<time>2019-10-11T03:56:47Z</time></trkpt>
<trkpt lat="52.32224" lon="-1.8191">
<ele>117</ele>
<time>2019-10-11T03:57:00Z</time></trkpt>
<trkpt lat="52.32279" lon="-1.82019">
<ele>119</ele>
<time>2019-10-11T03:57:17Z</time></trkpt>
<trkpt lat="52.3235" lon="-1.82094">
<ele>122</ele>
<time>2019-10-11T03:57:34Z</time></trkpt>
<trkpt lat="52.32413" lon="-1.82138">
<ele>124</ele>
<time>2019-10-11T03:57:48Z</time></trkpt>
<trkpt lat="52.32511" lon="-1.82185">
<ele>122</ele>
<time>2019-10-11T03:58:08Z</time></trkpt>
<trkpt lat="52.32534" lon="-1.82204">
<ele>123</ele>
<time>2019-10-11T03:58:14Z</time></trkpt>
<trkpt lat="52.3275" lon="-1.82444">
<ele>131</ele>
<time>2019-10-11T03:59:06Z</time></trkpt>
<trkpt lat="52.32824" lon="-1.8258">
<ele>130</ele>
<time>2019-10-11T03:59:28Z</time></trkpt>
<trkpt lat="52.3291" lon="-1.82687">
<ele>125</ele>
<time>2019-10-11T03:59:50Z</time></trkpt>
<trkpt lat="52.32919" lon="-1.82728">
<ele>124</ele>
<time>2019-10-11T03:59:55Z</time></trkpt>
<trkpt lat="52.32915" lon="-1.82832">
<ele>123</ele>
<time>2019-10-11T04:00:08Z</time></trkpt>
<trkpt lat="52.33067" lon="-1.8302">
<ele>131</ele>
<time>2019-10-11T04:00:46Z</time></trkpt>
<trkpt lat="52.33144" lon="-1.8307">
<ele>133</ele>
<time>2019-10-11T04:01:03Z</time></trkpt>
<trkpt lat="52.33164" lon="-1.83065">
<ele>133</ele>
<time>2019-10-11T04:01:07Z</time></trkpt>
<trkpt lat="52.33216" lon="-1.8308">
<ele>134</ele>
<time>2019-10-11T04:01:17Z</time></trkpt>
<trkpt lat="52.33289" lon="-1.83139">
<ele>140</ele>
<time>2019-10-11T04:01:34Z</time></trkpt>
<trkpt lat="52.33423" lon="-1.83197">
<ele>145</ele>
<time>2019-10-11T04:02:02Z</time></trkpt>
<trkpt lat="52.33455" lon="-1.83243">
<ele>145</ele>
<time>2019-10-11T04:02:10Z</time></trkpt>
<trkpt lat="52.33483" lon="-1.83334">
<ele>149</ele>
<time>2019-10-11T04:02:23Z</time></trkpt>
<trkpt lat="52.33522" lon="-1.8336">
<ele>147</ele>
<time>2019-10-11T04:02:31Z</time></trkpt>
<trkpt lat="52.33527" lon="-1.83372">
<ele>147</ele>
<time>2019-10-11T04:02:33Z</time></trkpt>
<trkpt lat="52.33593" lon="-1.83337">
<ele>141</ele>
<time>2019-10-11T04:02:47Z</time></trkpt>
<trkpt lat="52.33659" lon="-1.83323">
<ele>136</ele>
<time>2019-10-11T04:03:00Z</time></trkpt>
<trkpt lat="52.33688" lon="-1.83303">
<ele>134</ele>
<time>2019-10-11T04:03:06Z</time></trkpt>
<trkpt lat="52.33767" lon="-1.8321">
<ele>127</ele>
<time>2019-10-11T04:03:26Z</time></trkpt>
<trkpt lat="52.33857" lon="-1.83163">
<ele>125</ele>
<time>2019-10-11T04:03:45Z</time></trkpt>
<trkpt lat="52.3391" lon="-1.83122">
<ele>129</ele>
<time>2019-10-11T04:03:56Z</time></trkpt>
<trkpt lat="52.33976" lon="-1.83109">
<ele>136</ele>
<time>2019-10-11T04:04:10Z</time></trkpt>
<trkpt lat="52.34034" lon="-1.83072">
<ele>142</ele>
<time>2019-10-11T04:04:22Z</time></trkpt>
<trkpt lat="52.34149" lon="-1.82979">
<ele>152</ele>
<time>2019-10-11T04:04:48Z</time></trkpt>
<trkpt lat="52.34168" lon="-1.82956">
<ele>154</ele>
<time>2019-10-11T04:04:53Z</time></trkpt>
<trkpt lat="52.34194" lon="-1.82897">
<ele>154</ele>
<time>2019-10-11T04:05:02Z</time></trkpt>
<trkpt lat="52.34223" lon="-1.82852">
<ele>154</ele>
<time>2019-10-11T04:05:10Z</time></trkpt>
<trkpt lat="52.34269" lon="-1.82811">
<ele>155</ele>
<time>2019-10-11T04:05:20Z</time></trkpt>
<trkpt lat="52.34471" lon="-1.82767">
<ele>152</ele>
<time>2019-10-11T04:06:01Z</time></trkpt>
<trkpt lat="52.3453" lon="-1.82745">
<ele>152</ele>
<time>2019-10-11T04:06:13Z</time></trkpt>
<trkpt lat="52.34569" lon="-1.82722">
<ele>153</ele>
<time>2019-10-11T04:06:21Z</time></trkpt>
<trkpt lat="52.34674" lon="-1.82687">
<ele>155</ele>
<time>2019-10-11T04:06:43Z</time></trkpt>
<trkpt lat="52.3482" lon="-1.82607">
<ele>150</ele>
<time>2019-10-11T04:07:14Z</time></trkpt>
<trkpt lat="52.3522" lon="-1.82307">
<ele>148</ele>
<time>2019-10-11T04:08:42Z</time></trkpt>
<trkpt lat="52.35399" lon="-1.82121">
<ele>147</ele>
<time>2019-10-11T04:09:24Z</time></trkpt>
<trkpt lat="52.35523" lon="-1.8198">
<ele>144</ele>
<time>2019-10-11T04:09:55Z</time></trkpt>
<trkpt lat="52.35621" lon="-1.82138">
<ele>143</ele>
<time>2019-10-11T04:10:22Z</time></trkpt>
<trkpt lat="52.35704" lon="-1.822">
<ele>144</ele>
<time>2019-10-11T04:10:40Z</time></trkpt>
<trkpt lat="52.35808" lon="-1.82291">
<ele>148</ele>
<time>2019-10-11T04:11:04Z</time></trkpt>
<trkpt lat="52.35912" lon="-1.82397">
<ele>149</ele>
<time>2019-10-11T04:11:29Z</time></trkpt>
<trkpt lat="52.35986" lon="-1.82485">
<ele>152</ele>
<time>2019-10-11T04:11:47Z</time></trkpt>
</trkseg>
</trk>
</gpx>